Observation data for Lesley on 07/18/2019      Previous  Date  Next       Current Mesonet Observations  Soil Data  Daily Summary Page  Observations in Plain Language
KLE1 180500Z 17012KT 30/17 A2992 RMK A01 T03030173  RH  046%=      5-min Rain = 0
KLE1 180501Z 17012KT 30/17 A2992 RMK A01 T03030174  RH  046%=      5-min Rain = 0
KLE1 180502Z 17011KT 30/17 A2992 RMK A01 T03030174  RH  046%=      5-min Rain = 0
KLE1 180503Z 17011KT 30/17 A2992 RMK A01 T03020174  RH  046%=      5-min Rain = 0
KLE1 180504Z 17015KT 30/17 A2992 RMK A01 T03010174  RH  046%=      5-min Rain = 0
KLE1 180505Z 17012KT 30/17 A2992 RMK A01 T03020174  RH  046%=      5-min Rain = 0
KLE1 180506Z 17014KT 30/17 A2992 RMK A01 T03020174  RH  046%=      5-min Rain = 0
KLE1 180507Z 17012KT 30/17 A2992 RMK A01 T03020174  RH  046%=      5-min Rain = 0
KLE1 180508Z 17012KT 30/17 A2992 RMK A01 T03020174  RH  046%=      5-min Rain = 0
KLE1 180509Z 17011KT 30/17 A2992 RMK A01 T03020174  RH  046%=      5-min Rain = 0
KLE1 180510Z 17012KT 30/17 A2992 RMK A01 T03010174  RH  047%=      5-min Rain = 0
KLE1 180511Z 17012KT 30/17 A2992 RMK A01 T03010174  RH  047%=      5-min Rain = 0
KLE1 180512Z 17011KT 30/17 A2992 RMK A01 T03010174  RH  047%=      5-min Rain = 0
KLE1 180513Z 17012KT 30/17 A2992 RMK A01 T03000174  RH  047%=      5-min Rain = 0
KLE1 180514Z 17011KT 30/17 A2992 RMK A01 T03000174  RH  047%=      5-min Rain = 0
KLE1 180515Z 17011KT 30/17 A2992 RMK A01 T03000174  RH  047%=      5-min Rain = 0
KLE1 180516Z 17012KT 30/17 A2992 RMK A01 T03000174  RH  047%=      5-min Rain = 0
KLE1 180517Z 17012KT 30/17 A2992 RMK A01 T03000174  RH  047%=      5-min Rain = 0
KLE1 180518Z 17011KT 30/17 A2992 RMK A01 T03000174  RH  047%=      5-min Rain = 0
KLE1 180519Z 17012KT 30/17 A2992 RMK A01 T02990174  RH  047%=      5-min Rain = 0
KLE1 180520Z 17012KT 30/17 A2992 RMK A01 T02990174  RH  047%=      5-min Rain = 0
KLE1 180521Z 17012KT 30/17 A2992 RMK A01 T02990174  RH  047%=      5-min Rain = 0
KLE1 180522Z 17013KT 30/17 A2992 RMK A01 T02990174  RH  047%=      5-min Rain = 0
KLE1 180523Z 17012KT 30/17 A2992 RMK A01 T02990174  RH  047%=      5-min Rain = 0
KLE1 180524Z 17011KT 30/17 A2992 RMK A01 T02990174  RH  047%=      5-min Rain = 0
KLE1 180525Z 17010KT 30/17 A2992 RMK A01 T02980174  RH  047%=      5-min Rain = 0
KLE1 180526Z 17011KT 30/17 A2992 RMK A01 T02980174  RH  047%=      5-min Rain = 0
KLE1 180527Z 17011KT 30/17 A2992 RMK A01 T02980174  RH  047%=      5-min Rain = 0
KLE1 180528Z 17013KT 30/17 A2992 RMK A01 T02980174  RH  047%=      5-min Rain = 0
KLE1 180529Z 17010KT 30/17 A2992 RMK A01 T02980174  RH  047%=      5-min Rain = 0
KLE1 180530Z 17010KT 30/17 A2992 RMK A01 T02980174  RH  047%=      5-min Rain = 0
KLE1 180531Z 17009KT 30/17 A2992 RMK A01 T02970174  RH  048%=      5-min Rain = 0
KLE1 180532Z 17012KT 30/17 A2992 RMK A01 T02960174  RH  048%=      5-min Rain = 0
KLE1 180533Z 16012KT 30/17 A2992 RMK A01 T02960174  RH  048%=      5-min Rain = 0
KLE1 180534Z 17010KT 30/17 A2992 RMK A01 T02960174  RH  048%=      5-min Rain = 0
KLE1 180535Z 17011KT 30/17 A2992 RMK A01 T02960174  RH  048%=      5-min Rain = 0
KLE1 180536Z 16010KT 30/17 A2992 RMK A01 T02960174  RH  048%=      5-min Rain = 0
KLE1 180537Z 17011KT 30/17 A2992 RMK A01 T02960174  RH  048%=      5-min Rain = 0
KLE1 180538Z 17012KT 30/17 A2992 RMK A01 T02950174  RH  048%=      5-min Rain = 0
KLE1 180539Z 17012KT 30/17 A2992 RMK A01 T02960174  RH  048%=      5-min Rain = 0
KLE1 180540Z 16011KT 30/17 A2992 RMK A01 T02960174  RH  048%=      5-min Rain = 0
KLE1 180541Z 16010KT 30/17 A2992 RMK A01 T02960174  RH  048%=      5-min Rain = 0
KLE1 180542Z 16012KT 30/17 A2992 RMK A01 T02960174  RH  048%=      5-min Rain = 0
KLE1 180543Z 16012KT 30/17 A2992 RMK A01 T02950174  RH  048%=      5-min Rain = 0
KLE1 180544Z 16011KT 30/17 A2992 RMK A01 T02950174  RH  048%=      5-min Rain = 0
KLE1 180545Z 16012KT 30/17 A2992 RMK A01 T02950173  RH  048%=      5-min Rain = 0
KLE1 180546Z 16010KT 30/17 A2992 RMK A01 T02950174  RH  048%=      5-min Rain = 0
KLE1 180547Z 16010KT 30/17 A2992 RMK A01 T02950174  RH  048%=      5-min Rain = 0
KLE1 180548Z 16009KT 30/17 A2992 RMK A01 T02950174  RH  048%=      5-min Rain = 0
KLE1 180549Z 16010KT 29/17 A2992 RMK A01 T02940174  RH  048%=      5-min Rain = 0
KLE1 180550Z 16009KT 29/17 A2992 RMK A01 T02930174  RH  048%=      5-min Rain = 0
KLE1 180551Z 16010KT 29/17 A2992 RMK A01 T02920173  RH  049%=      5-min Rain = 0
KLE1 180552Z 15010KT 29/17 A2992 RMK A01 T02920173  RH  049%=      5-min Rain = 0
KLE1 180553Z 16011KT 29/17 A2991 RMK A01 T02920173  RH  049%=      5-min Rain = 0
KLE1 180554Z 16010KT 29/17 A2991 RMK A01 T02920174  RH  049%=      5-min Rain = 0
KLE1 180555Z 16009KT 29/17 A2991 RMK A01 T02920173  RH  049%=      5-min Rain = 0
KLE1 180556Z 16009KT 29/17 A2991 RMK A01 T02910173  RH  049%=      5-min Rain = 0
KLE1 180557Z 16011KT 29/17 A2991 RMK A01 T02910173  RH  049%=      5-min Rain = 0
KLE1 180558Z 16010KT 29/17 A2991 RMK A01 T02910173  RH  049%=      5-min Rain = 0
KLE1 180559Z 16010KT 29/17 A2991 RMK A01 T02910174  RH  049%=      5-min Rain = 0
KLE1 180600Z 16009KT 29/17 A2991 RMK A01 T02910174  RH  049%=      5-min Rain = 0
KLE1 180601Z 16010KT 29/17 A2991 RMK A01 T02900174  RH  049%=      5-min Rain = 0
KLE1 180602Z 15009KT 29/17 A2991 RMK A01 T02900174  RH  049%=      5-min Rain = 0
KLE1 180603Z 15009KT 29/17 A2991 RMK A01 T02900174  RH  049%=      5-min Rain = 0
KLE1 180604Z 16008KT 29/17 A2991 RMK A01 T02900174  RH  050%=      5-min Rain = 0
KLE1 180605Z 15009KT 29/17 A2991 RMK A01 T02890174  RH  050%=      5-min Rain = 0
KLE1 180606Z 15009KT 29/17 A2991 RMK A01 T02890174  RH  050%=      5-min Rain = 0
KLE1 180607Z 15008KT 29/17 A2991 RMK A01 T02890173  RH  050%=      5-min Rain = 0
KLE1 180608Z 15007KT 29/17 A2991 RMK A01 T02890174  RH  050%=      5-min Rain = 0
KLE1 180609Z 15009KT 29/17 A2991 RMK A01 T02890174  RH  050%=      5-min Rain = 0
KLE1 180610Z 15010KT 29/17 A2991 RMK A01 T02880174  RH  050%=      5-min Rain = 0
KLE1 180611Z 15009KT 29/17 A2991 RMK A01 T02880174  RH  050%=      5-min Rain = 0
KLE1 180612Z 15010KT 29/17 A2991 RMK A01 T02880174  RH  050%=      5-min Rain = 0
KLE1 180613Z 15009KT 29/17 A2991 RMK A01 T02890174  RH  050%=      5-min Rain = 0
KLE1 180614Z 15008KT 29/17 A2991 RMK A01 T02890174  RH  050%=      5-min Rain = 0
KLE1 180615Z 15009KT 29/17 A2991 RMK A01 T02880174  RH  050%=      5-min Rain = 0
KLE1 180616Z 15008KT 29/17 A2991 RMK A01 T02880174  RH  050%=      5-min Rain = 0
KLE1 180617Z 15008KT 29/17 A2991 RMK A01 T02880173  RH  050%=      5-min Rain = 0
KLE1 180618Z 15008KT 29/17 A2991 RMK A01 T02880174  RH  050%=      5-min Rain = 0
KLE1 180619Z 15008KT 29/17 A2991 RMK A01 T02880174  RH  050%=      5-min Rain = 0
KLE1 180620Z 15009KT 29/17 A2991 RMK A01 T02870174  RH  050%=      5-min Rain = 0
KLE1 180621Z 15008KT 29/17 A2991 RMK A01 T02870174  RH  050%=      5-min Rain = 0
KLE1 180622Z 15008KT 29/17 A2991 RMK A01 T02870174  RH  050%=      5-min Rain = 0
KLE1 180623Z 15008KT 29/17 A2991 RMK A01 T02870174  RH  050%=      5-min Rain = 0
KLE1 180624Z 15009KT 29/17 A2991 RMK A01 T02870173  RH  050%=      5-min Rain = 0
KLE1 180625Z 15008KT 29/17 A2991 RMK A01 T02870174  RH  050%=      5-min Rain = 0
KLE1 180626Z 15007KT 29/17 A2991 RMK A01 T02870174  RH  050%=      5-min Rain = 0
KLE1 180627Z 16008KT 29/17 A2991 RMK A01 T02870174  RH  050%=      5-min Rain = 0
KLE1 180628Z 15007KT 29/17 A2991 RMK A01 T02860174  RH  051%=      5-min Rain = 0
KLE1 180629Z 15008KT 29/17 A2991 RMK A01 T02850173  RH  051%=      5-min Rain = 0
KLE1 180630Z 15009KT 29/17 A2991 RMK A01 T02850174  RH  051%=      5-min Rain = 0
KLE1 180631Z 15008KT 29/17 A2991 RMK A01 T02860174  RH  051%=      5-min Rain = 0
KLE1 180632Z 15007KT 29/17 A2991 RMK A01 T02860174  RH  051%=      5-min Rain = 0
KLE1 180633Z 15008KT 29/17 A2991 RMK A01 T02860174  RH  051%=      5-min Rain = 0
KLE1 180634Z 14007KT 29/17 A2991 RMK A01 T02850174  RH  051%=      5-min Rain = 0
KLE1 180635Z 14007KT 29/17 A2991 RMK A01 T02850174  RH  051%=      5-min Rain = 0
KLE1 180636Z 14007KT 29/17 A2991 RMK A01 T02850174  RH  051%=      5-min Rain = 0
KLE1 180637Z 15007KT 28/17 A2991 RMK A01 T02840174  RH  051%=      5-min Rain = 0
KLE1 180638Z 14008KT 28/17 A2991 RMK A01 T02840174  RH  051%=      5-min Rain = 0
KLE1 180639Z 14008KT 28/17 A2991 RMK A01 T02840174  RH  051%=      5-min Rain = 0
KLE1 180640Z 14006KT 28/17 A2991 RMK A01 T02840174  RH  051%=      5-min Rain = 0
KLE1 180641Z 15007KT 28/17 A2991 RMK A01 T02840174  RH  051%=      5-min Rain = 0
KLE1 180642Z 15007KT 28/17 A2991 RMK A01 T02840174  RH  051%=      5-min Rain = 0
KLE1 180643Z 14006KT 28/17 A2991 RMK A01 T02830174  RH  051%=      5-min Rain = 0
KLE1 180644Z 15008KT 28/17 A2991 RMK A01 T02830174  RH  051%=      5-min Rain = 0
KLE1 180645Z 14007KT 28/17 A2991 RMK A01 T02830174  RH  051%=      5-min Rain = 0
KLE1 180646Z 14008KT 28/17 A2991 RMK A01 T02840174  RH  051%=      5-min Rain = 0
KLE1 180647Z 14008KT 28/17 A2991 RMK A01 T02840174  RH  051%=      5-min Rain = 0
KLE1 180648Z 14007KT 28/17 A2991 RMK A01 T02840174  RH  051%=      5-min Rain = 0
KLE1 180649Z 16007KT 28/17 A2991 RMK A01 T02830174  RH  052%=      5-min Rain = 0
KLE1 180650Z 14007KT 28/17 A2991 RMK A01 T02830174  RH  052%=      5-min Rain = 0
KLE1 180651Z 14006KT 28/17 A2991 RMK A01 T02830174  RH  052%=      5-min Rain = 0
KLE1 180652Z 13007KT 28/17 A2991 RMK A01 T02830174  RH  052%=      5-min Rain = 0
KLE1 180653Z 14008KT 28/17 A299 RMK A01 T02830174  RH  052%=      5-min Rain = 0
KLE1 180654Z 14008KT 28/17 A299 RMK A01 T02820174  RH  052%=      5-min Rain = 0
KLE1 180655Z 15010KT 28/17 A2991 RMK A01 T02820174  RH  052%=      5-min Rain = 0
KLE1 180656Z 15008KT 28/18 A2991 RMK A01 T02820175  RH  052%=      5-min Rain = 0
KLE1 180657Z 15009KT 28/17 A299 RMK A01 T02820174  RH  052%=      5-min Rain = 0
KLE1 180658Z 16009KT 28/17 A299 RMK A01 T02820174  RH  052%=      5-min Rain = 0
KLE1 180659Z 15009KT 28/17 A299 RMK A01 T02820174  RH  052%=      5-min Rain = 0
KLE1 180700Z 14009KT 28/17 A299 RMK A01 T02820174  RH  052%=      5-min Rain = 0
KLE1 180701Z 14010KT 28/17 A299 RMK A01 T02820174  RH  052%=      5-min Rain = 0
KLE1 180702Z 14008KT 28/18 A299 RMK A01 T02830175  RH  052%=      5-min Rain = 0
KLE1 180703Z 14009KT 28/17 A299 RMK A01 T02820174  RH  052%=      5-min Rain = 0
KLE1 180704Z 14009KT 28/17 A299 RMK A01 T02820174  RH  052%=      5-min Rain = 0
KLE1 180705Z 14009KT 28/17 A299 RMK A01 T02820174  RH  052%=      5-min Rain = 0
KLE1 180706Z 14009KT 28/17 A299 RMK A01 T02820174  RH  052%=      5-min Rain = 0
KLE1 180707Z 14009KT 28/17 A299 RMK A01 T02810174  RH  052%=      5-min Rain = 0
KLE1 180708Z 14007KT 28/18 A299 RMK A01 T02820175  RH  052%=      5-min Rain = 0
KLE1 180709Z 14008KT 28/18 A299 RMK A01 T02810175  RH  052%=      5-min Rain = 0
KLE1 180710Z 14008KT 28/17 A299 RMK A01 T02800174  RH  052%=      5-min Rain = 0
KLE1 180711Z 14007KT 28/17 A299 RMK A01 T02800174  RH  053%=      5-min Rain = 0
KLE1 180712Z 14007KT 28/17 A299 RMK A01 T02800174  RH  053%=      5-min Rain = 0
KLE1 180713Z 13006KT 28/17 A299 RMK A01 T02790174  RH  053%=      5-min Rain = 0
KLE1 180714Z 14007KT 28/17 A299 RMK A01 T02790174  RH  053%=      5-min Rain = 0
KLE1 180715Z 14008KT 28/17 A299 RMK A01 T02790174  RH  053%=      5-min Rain = 0
KLE1 180716Z 14006KT 28/17 A299 RMK A01 T02790174  RH  053%=      5-min Rain = 0
KLE1 180717Z 14008KT 28/17 A299 RMK A01 T02780174  RH  053%=      5-min Rain = 0
KLE1 180718Z 14007KT 28/17 A299 RMK A01 T02780174  RH  053%=      5-min Rain = 0
KLE1 180719Z 14007KT 28/18 A299 RMK A01 T02790175  RH  053%=      5-min Rain = 0
KLE1 180720Z 15007KT 28/17 A299 RMK A01 T02780174  RH  053%=      5-min Rain = 0
KLE1 180721Z 14006KT 28/17 A299 RMK A01 T02780174  RH  053%=      5-min Rain = 0
KLE1 180722Z 14006KT 28/18 A2991 RMK A01 T02780175  RH  053%=      5-min Rain = 0
KLE1 180723Z 14006KT 28/17 A2991 RMK A01 T02770174  RH  053%=      5-min Rain = 0
KLE1 180724Z 14005KT 28/18 A2991 RMK A01 T02780175  RH  053%=      5-min Rain = 0
KLE1 180725Z 14004KT 28/17 A2991 RMK A01 T02770174  RH  053%=      5-min Rain = 0
KLE1 180726Z 14004KT 28/17 A2991 RMK A01 T02760174  RH  054%=      5-min Rain = 0
KLE1 180727Z 14004KT 28/17 A2991 RMK A01 T02760174  RH  054%=      5-min Rain = 0
KLE1 180728Z 13004KT 28/17 A2991 RMK A01 T02770174  RH  054%=      5-min Rain = 0
KLE1 180729Z 13004KT 28/17 A2991 RMK A01 T02770174  RH  054%=      5-min Rain = 0
KLE1 180730Z 13005KT 28/17 A2991 RMK A01 T02770174  RH  054%=      5-min Rain = 0
KLE1 180731Z 13003KT 28/17 A2991 RMK A01 T02760174  RH  054%=      5-min Rain = 0
KLE1 180732Z 13004KT 28/17 A2991 RMK A01 T02750174  RH  054%=      5-min Rain = 0
KLE1 180733Z 13004KT 28/17 A2991 RMK A01 T02750174  RH  054%=      5-min Rain = 0
KLE1 180734Z 15004KT 27/17 A2991 RMK A01 T02740174  RH  054%=      5-min Rain = 0
KLE1 180735Z 13003KT 27/17 A2991 RMK A01 T02730174  RH  055%=      5-min Rain = 0
KLE1 180736Z 13004KT 27/17 A2991 RMK A01 T02720174  RH  055%=      5-min Rain = 0
KLE1 180737Z 12003KT 27/17 A2991 RMK A01 T02720174  RH  055%=      5-min Rain = 0
KLE1 180738Z 12003KT 27/17 A2991 RMK A01 T02720174  RH  055%=      5-min Rain = 0
KLE1 180739Z 12004KT 27/17 A2991 RMK A01 T02720174  RH  055%=      5-min Rain = 0
KLE1 180740Z 12003KT 27/17 A2991 RMK A01 T02720174  RH  055%=      5-min Rain = 0
KLE1 180741Z 14004KT 27/17 A2991 RMK A01 T02720174  RH  055%=      5-min Rain = 0
KLE1 180742Z 13004KT 27/17 A2991 RMK A01 T02720174  RH  055%=      5-min Rain = 0
KLE1 180743Z 13004KT 27/17 A2991 RMK A01 T02720174  RH  055%=      5-min Rain = 0
KLE1 180744Z 13004KT 27/17 A2991 RMK A01 T02730174  RH  055%=      5-min Rain = 0
KLE1 180745Z 12004KT 27/17 A2991 RMK A01 T02720174  RH  055%=      5-min Rain = 0
KLE1 180746Z 12004KT 27/17 A2991 RMK A01 T02720174  RH  055%=      5-min Rain = 0
KLE1 180747Z 12005KT 27/17 A2991 RMK A01 T02720174  RH  055%=      5-min Rain = 0
KLE1 180748Z 12003KT 27/17 A2991 RMK A01 T02720174  RH  055%=      5-min Rain = 0
KLE1 180749Z 12004KT 27/17 A2991 RMK A01 T02720174  RH  055%=      5-min Rain = 0
KLE1 180750Z 14004KT 27/17 A2991 RMK A01 T02720174  RH  055%=      5-min Rain = 0
KLE1 180751Z 13003KT 27/17 A2991 RMK A01 T02720174  RH  055%=      5-min Rain = 0
KLE1 180752Z 15003KT 27/17 A2991 RMK A01 T02710174  RH  055%=      5-min Rain = 0
KLE1 180753Z 13003KT 27/17 A2991 RMK A01 T02700174  RH  056%=      5-min Rain = 0
KLE1 180754Z 14004KT 27/17 A2991 RMK A01 T02690174  RH  056%=      5-min Rain = 0
KLE1 180755Z 16006KT 27/17 A2991 RMK A01 T02680174  RH  056%=      5-min Rain = 0
KLE1 180756Z 14004KT 27/17 A2991 RMK A01 T02690174  RH  056%=      5-min Rain = 0
KLE1 180757Z 14004KT 27/17 A2991 RMK A01 T02700174  RH  056%=      5-min Rain = 0
KLE1 180758Z 14003KT 27/18 A2991 RMK A01 T02710175  RH  056%=      5-min Rain = 0
KLE1 180759Z 14002KT 27/17 A2991 RMK A01 T02710174  RH  055%=      5-min Rain = 0
KLE1 180800Z 14001KT 27/18 A2991 RMK A01 T02720175  RH  055%=      5-min Rain = 0
KLE1 180801Z 16001KT 27/17 A2991 RMK A01 T02720174  RH  055%=      5-min Rain = 0
KLE1 180802Z 13001KT 27/18 A2991 RMK A01 T02720175  RH  055%=      5-min Rain = 0
KLE1 180803Z 13001KT 27/18 A2991 RMK A01 T02720175  RH  055%=      5-min Rain = 0
KLE1 180804Z 15002KT 27/17 A2991 RMK A01 T02720174  RH  055%=      5-min Rain = 0
KLE1 180805Z 17003KT 27/18 A2991 RMK A01 T02720175  RH  055%=      5-min Rain = 0
KLE1 180806Z 18002KT 27/17 A2991 RMK A01 T02710174  RH  055%=      5-min Rain = 0
KLE1 180807Z 17003KT 27/17 A2991 RMK A01 T02700174  RH  056%=      5-min Rain = 0
KLE1 180808Z 15003KT 27/17 A2991 RMK A01 T02700174  RH  056%=      5-min Rain = 0
KLE1 180809Z 15003KT 27/17 A2991 RMK A01 T02700174  RH  056%=      5-min Rain = 0
KLE1 180810Z 15003KT 27/17 A2991 RMK A01 T02700174  RH  056%=      5-min Rain = 0
KLE1 180811Z 16003KT 27/17 A2991 RMK A01 T02700174  RH  056%=      5-min Rain = 0
KLE1 180812Z 15004KT 27/17 A2991 RMK A01 T02700174  RH  056%=      5-min Rain = 0
KLE1 180813Z 16005KT 27/17 A2991 RMK A01 T02700174  RH  056%=      5-min Rain = 0
KLE1 180814Z 16006KT 27/17 A2991 RMK A01 T02700174  RH  056%=      5-min Rain = 0
KLE1 180815Z 16004KT 27/18 A2991 RMK A01 T02700175  RH  056%=      5-min Rain = 0
KLE1 180816Z 16005KT 27/17 A2991 RMK A01 T02700174  RH  056%=      5-min Rain = 0
KLE1 180817Z 15005KT 27/17 A2991 RMK A01 T02690174  RH  056%=      5-min Rain = 0
KLE1 180818Z 15006KT 27/18 A2991 RMK A01 T02680175  RH  057%=      5-min Rain = 0
KLE1 180819Z 15005KT 27/17 A2991 RMK A01 T02670174  RH  057%=      5-min Rain = 0
KLE1 180820Z 16005KT 27/18 A2991 RMK A01 T02660175  RH  057%=      5-min Rain = 0
KLE1 180821Z 15005KT 27/18 A2991 RMK A01 T02650175  RH  057%=      5-min Rain = 0
KLE1 180822Z 17007KT 27/18 A2991 RMK A01 T02650175  RH  058%=      5-min Rain = 0
KLE1 180823Z 14005KT 27/18 A2991 RMK A01 T02670175  RH  057%=      5-min Rain = 0
KLE1 180824Z 15005KT 27/18 A2991 RMK A01 T02690176  RH  057%=      5-min Rain = 0
KLE1 180825Z 15005KT 27/18 A2991 RMK A01 T02680175  RH  057%=      5-min Rain = 0
KLE1 180826Z 15005KT 27/18 A2991 RMK A01 T02680175  RH  057%=      5-min Rain = 0
KLE1 180827Z 14005KT 27/18 A2991 RMK A01 T02680175  RH  057%=      5-min Rain = 0
KLE1 180828Z 14005KT 27/18 A2991 RMK A01 T02680175  RH  057%=      5-min Rain = 0
KLE1 180829Z 14006KT 27/18 A2991 RMK A01 T02690175  RH  057%=      5-min Rain = 0
KLE1 180830Z 16006KT 27/18 A2992 RMK A01 T02690175  RH  056%=      5-min Rain = 0
KLE1 180831Z 15005KT 27/18 A2992 RMK A01 T02690175  RH  056%=      5-min Rain = 0
KLE1 180832Z 15005KT 27/18 A2992 RMK A01 T02690175  RH  057%=      5-min Rain = 0
KLE1 180833Z 13005KT 27/18 A2992 RMK A01 T02690175  RH  057%=      5-min Rain = 0
KLE1 180834Z 15004KT 27/18 A2992 RMK A01 T02690175  RH  056%=      5-min Rain = 0
KLE1 180835Z 16006KT 27/18 A2992 RMK A01 T02690175  RH  056%=      5-min Rain = 0
KLE1 180836Z 17005KT 27/18 A2992 RMK A01 T02690175  RH  056%=      5-min Rain = 0
KLE1 180837Z 16004KT 27/18 A2992 RMK A01 T02680175  RH  057%=      5-min Rain = 0
KLE1 180838Z 16005KT 27/18 A2992 RMK A01 T02680175  RH  057%=      5-min Rain = 0
KLE1 180839Z 17005KT 27/18 A2992 RMK A01 T02680175  RH  057%=      5-min Rain = 0
KLE1 180840Z 15004KT 27/18 A2992 RMK A01 T02670175  RH  057%=      5-min Rain = 0
KLE1 180841Z 16007KT 27/18 A2992 RMK A01 T02670175  RH  057%=      5-min Rain = 0
KLE1 180842Z 16006KT 27/18 A2992 RMK A01 T02670175  RH  057%=      5-min Rain = 0
KLE1 180843Z 17006KT 27/18 A2992 RMK A01 T02660175  RH  057%=      5-min Rain = 0
KLE1 180844Z 15006KT 27/18 A2992 RMK A01 T02670176  RH  057%=      5-min Rain = 0
KLE1 180845Z 16008KT 27/18 A2992 RMK A01 T02660175  RH  057%=      5-min Rain = 0
KLE1 180846Z 16008KT 27/18 A2992 RMK A01 T02670176  RH  057%=      5-min Rain = 0
KLE1 180847Z 16007KT 27/18 A2992 RMK A01 T02690176  RH  057%=      5-min Rain = 0
KLE1 180848Z 15008KT 27/18 A2992 RMK A01 T02690176  RH  057%=      5-min Rain = 0
KLE1 180849Z 15008KT 27/18 A2991 RMK A01 T02690176  RH  057%=      5-min Rain = 0
KLE1 180850Z 16007KT 27/18 A2991 RMK A01 T02670175  RH  057%=      5-min Rain = 0
KLE1 180851Z 16007KT 27/18 A2991 RMK A01 T02670175  RH  057%=      5-min Rain = 0
KLE1 180852Z 16010KT 27/18 A2991 RMK A01 T02670175  RH  057%=      5-min Rain = 0
KLE1 180853Z 16009KT 27/18 A2991 RMK A01 T02670176  RH  057%=      5-min Rain = 0
KLE1 180854Z 16007KT 27/18 A2991 RMK A01 T02680175  RH  057%=      5-min Rain = 0
KLE1 180855Z 17007KT 27/18 A2992 RMK A01 T02690176  RH  057%=      5-min Rain = 0
KLE1 180856Z 16006KT 27/18 A2992 RMK A01 T02680176  RH  057%=      5-min Rain = 0
KLE1 180857Z 17007KT 27/18 A2992 RMK A01 T02690176  RH  057%=      5-min Rain = 0
KLE1 180858Z 18005KT 27/18 A2992 RMK A01 T02670175  RH  057%=      5-min Rain = 0
KLE1 180859Z 18007KT 27/18 A2992 RMK A01 T02670175  RH  057%=      5-min Rain = 0
KLE1 180900Z 16006KT 27/18 A2992 RMK A01 T02670176  RH  057%=      5-min Rain = 0
KLE1 180901Z 18007KT 27/18 A2992 RMK A01 T02660175  RH  057%=      5-min Rain = 0
KLE1 180902Z 17005KT 27/18 A2992 RMK A01 T02670175  RH  057%=      5-min Rain = 0
KLE1 180903Z 17005KT 27/18 A2992 RMK A01 T02670175  RH  057%=      5-min Rain = 0
KLE1 180904Z 17005KT 27/18 A2992 RMK A01 T02680176  RH  057%=      5-min Rain = 0
KLE1 180905Z 16006KT 27/18 A2992 RMK A01 T02660175  RH  057%=      5-min Rain = 0
KLE1 180906Z 16006KT 27/18 A2992 RMK A01 T02650175  RH  058%=      5-min Rain = 0
KLE1 180907Z 17005KT 26/18 A2992 RMK A01 T02640175  RH  058%=      5-min Rain = 0
KLE1 180908Z 16006KT 26/18 A2992 RMK A01 T02630175  RH  058%=      5-min Rain = 0
KLE1 180909Z 16006KT 26/18 A2992 RMK A01 T02630175  RH  059%=      5-min Rain = 0
KLE1 180910Z 16007KT 26/18 A2992 RMK A01 T02620175  RH  059%=      5-min Rain = 0
KLE1 180911Z 16006KT 26/18 A2991 RMK A01 T02620175  RH  059%=      5-min Rain = 0
KLE1 180912Z 15007KT 26/18 A2991 RMK A01 T02620176  RH  059%=      5-min Rain = 0
KLE1 180913Z 15007KT 26/18 A2991 RMK A01 T02620176  RH  059%=      5-min Rain = 0
KLE1 180914Z 16007KT 26/18 A2991 RMK A01 T02620176  RH  059%=      5-min Rain = 0
KLE1 180915Z 16009KT 26/18 A2991 RMK A01 T02610175  RH  059%=      5-min Rain = 0
KLE1 180916Z 15008KT 26/18 A2991 RMK A01 T02600175  RH  059%=      5-min Rain = 0
KLE1 180917Z 16009KT 26/18 A2991 RMK A01 T02610175  RH  059%=      5-min Rain = 0
KLE1 180918Z 16008KT 26/18 A2991 RMK A01 T02610175  RH  059%=      5-min Rain = 0
KLE1 180919Z 17008KT 26/18 A2991 RMK A01 T02610175  RH  059%=      5-min Rain = 0
KLE1 180920Z 16007KT 26/18 A2991 RMK A01 T02620176  RH  059%=      5-min Rain = 0
KLE1 180921Z 15007KT 26/18 A2991 RMK A01 T02620176  RH  059%=      5-min Rain = 0
KLE1 180922Z 16008KT 26/18 A2991 RMK A01 T02620175  RH  059%=      5-min Rain = 0
KLE1 180923Z 15008KT 26/18 A2991 RMK A01 T02610175  RH  059%=      5-min Rain = 0
KLE1 180924Z 15008KT 26/18 A2991 RMK A01 T02610176  RH  059%=      5-min Rain = 0
KLE1 180925Z 15008KT 26/18 A2991 RMK A01 T02610176  RH  059%=      5-min Rain = 0
KLE1 180926Z 15008KT 26/18 A2991 RMK A01 T02610175  RH  059%=      5-min Rain = 0
KLE1 180927Z 15008KT 26/18 A2991 RMK A01 T02600175  RH  059%=      5-min Rain = 0
KLE1 180928Z 15008KT 26/18 A2992 RMK A01 T02610176  RH  059%=      5-min Rain = 0
KLE1 180929Z 15008KT 26/18 A2992 RMK A01 T02600176  RH  060%=      5-min Rain = 0
KLE1 180930Z 15008KT 26/18 A2992 RMK A01 T02600175  RH  060%=      5-min Rain = 0
KLE1 180931Z 15007KT 26/18 A2992 RMK A01 T02600175  RH  060%=      5-min Rain = 0
KLE1 180932Z 15007KT 26/18 A2992 RMK A01 T02600176  RH  060%=      5-min Rain = 0
KLE1 180933Z 14006KT 26/18 A2992 RMK A01 T02600176  RH  060%=      5-min Rain = 0
KLE1 180934Z 15006KT 26/18 A2992 RMK A01 T02590175  RH  060%=      5-min Rain = 0
KLE1 180935Z 15006KT 26/18 A2992 RMK A01 T02590175  RH  060%=      5-min Rain = 0
KLE1 180936Z 15007KT 26/18 A2992 RMK A01 T02590175  RH  060%=      5-min Rain = 0
KLE1 180937Z 15007KT 26/18 A2992 RMK A01 T02590176  RH  060%=      5-min Rain = 0
KLE1 180938Z 15007KT 26/18 A2992 RMK A01 T02590176  RH  060%=      5-min Rain = 0
KLE1 180939Z 14006KT 26/18 A2992 RMK A01 T02590175  RH  060%=      5-min Rain = 0
KLE1 180940Z 14005KT 26/18 A2992 RMK A01 T02600176  RH  060%=      5-min Rain = 0
KLE1 180941Z 14005KT 26/18 A2992 RMK A01 T02590176  RH  060%=      5-min Rain = 0
KLE1 180942Z 14006KT 26/18 A2992 RMK A01 T02590176  RH  060%=      5-min Rain = 0
KLE1 180943Z 14006KT 26/18 A2992 RMK A01 T02580176  RH  060%=      5-min Rain = 0
KLE1 180944Z 14006KT 26/18 A2992 RMK A01 T02590176  RH  060%=      5-min Rain = 0
KLE1 180945Z 14006KT 26/18 A2993 RMK A01 T02590176  RH  060%=      5-min Rain = 0
KLE1 180946Z 14005KT 26/18 A2993 RMK A01 T02580176  RH  060%=      5-min Rain = 0
KLE1 180947Z 14005KT 26/18 A2993 RMK A01 T02580175  RH  060%=      5-min Rain = 0
KLE1 180948Z 14006KT 26/18 A2993 RMK A01 T02570175  RH  061%=      5-min Rain = 0
KLE1 180949Z 14007KT 26/18 A2992 RMK A01 T02570176  RH  061%=      5-min Rain = 0
KLE1 180950Z 14007KT 26/18 A2992 RMK A01 T02560175  RH  061%=      5-min Rain = 0
KLE1 180951Z 14007KT 26/18 A2992 RMK A01 T02560176  RH  061%=      5-min Rain = 0
KLE1 180952Z 14008KT 26/18 A2992 RMK A01 T02560175  RH  061%=      5-min Rain = 0
KLE1 180953Z 14008KT 26/18 A2992 RMK A01 T02560176  RH  061%=      5-min Rain = 0
KLE1 180954Z 14009KT 26/18 A2992 RMK A01 T02550176  RH  061%=      5-min Rain = 0
KLE1 180955Z 14008KT 26/18 A2992 RMK A01 T02550176  RH  061%=      5-min Rain = 0
KLE1 180956Z 14008KT 26/18 A2992 RMK A01 T02550176  RH  061%=      5-min Rain = 0
KLE1 180957Z 14008KT 26/18 A2992 RMK A01 T02550176  RH  061%=      5-min Rain = 0
KLE1 180958Z 14009KT 26/18 A2992 RMK A01 T02550176  RH  061%=      5-min Rain = 0
KLE1 180959Z 14009KT 26/18 A2992 RMK A01 T02550176  RH  062%=      5-min Rain = 0
KLE1 181000Z 14008KT 25/18 A2992 RMK A01 T02540175  RH  062%=      5-min Rain = 0
KLE1 181001Z 14009KT 25/18 A2992 RMK A01 T02540176  RH  062%=      5-min Rain = 0
KLE1 181002Z 14010KT 25/18 A2992 RMK A01 T02540176  RH  062%=      5-min Rain = 0
KLE1 181003Z 14010KT 25/18 A2992 RMK A01 T02540175  RH  062%=      5-min Rain = 0
KLE1 181004Z 14009KT 26/18 A2992 RMK A01 T02550175  RH  061%=      5-min Rain = 0
KLE1 181005Z 14009KT 26/18 A2992 RMK A01 T02560176  RH  061%=      5-min Rain = 0
KLE1 181006Z 14009KT 26/18 A2992 RMK A01 T02560176  RH  061%=      5-min Rain = 0
KLE1 181007Z 14010KT 26/18 A2992 RMK A01 T02560176  RH  061%=      5-min Rain = 0
KLE1 181008Z 15009KT 26/18 A2992 RMK A01 T02560176  RH  061%=      5-min Rain = 0
KLE1 181009Z 14009KT 26/18 A2992 RMK A01 T02570176  RH  061%=      5-min Rain = 0
KLE1 181010Z 15008KT 26/18 A2992 RMK A01 T02560176  RH  061%=      5-min Rain = 0
KLE1 181011Z 14008KT 26/18 A2992 RMK A01 T02560175  RH  061%=      5-min Rain = 0
KLE1 181012Z 14008KT 26/18 A2992 RMK A01 T02570176  RH  061%=      5-min Rain = 0
KLE1 181013Z 14008KT 26/18 A2992 RMK A01 T02560175  RH  061%=      5-min Rain = 0
KLE1 181014Z 14007KT 26/18 A2992 RMK A01 T02560175  RH  061%=      5-min Rain = 0
KLE1 181015Z 14007KT 26/18 A2993 RMK A01 T02560176  RH  061%=      5-min Rain = 0
KLE1 181016Z 14008KT 26/18 A2993 RMK A01 T02560176  RH  061%=      5-min Rain = 0
KLE1 181017Z 14008KT 26/18 A2993 RMK A01 T02560176  RH  061%=      5-min Rain = 0
KLE1 181018Z 14008KT 26/18 A2993 RMK A01 T02550176  RH  061%=      5-min Rain = 0
KLE1 181019Z 14008KT 26/18 A2993 RMK A01 T02550175  RH  061%=      5-min Rain = 0
KLE1 181020Z 14008KT 26/18 A2993 RMK A01 T02550176  RH  061%=      5-min Rain = 0
KLE1 181021Z 14008KT 26/18 A2993 RMK A01 T02550176  RH  061%=      5-min Rain = 0
KLE1 181022Z 14008KT 26/18 A2993 RMK A01 T02550176  RH  061%=      5-min Rain = 0
KLE1 181023Z 14008KT 26/18 A2993 RMK A01 T02550176  RH  061%=      5-min Rain = 0
KLE1 181024Z 14007KT 26/18 A2993 RMK A01 T02550176  RH  062%=      5-min Rain = 0
KLE1 181025Z 14007KT 26/18 A2993 RMK A01 T02550176  RH  062%=      5-min Rain = 0
KLE1 181026Z 14007KT 25/18 A2993 RMK A01 T02540176  RH  062%=      5-min Rain = 0
KLE1 181027Z 14007KT 25/18 A2993 RMK A01 T02540176  RH  062%=      5-min Rain = 0
KLE1 181028Z 14006KT 25/18 A2993 RMK A01 T02540176  RH  062%=      5-min Rain = 0
KLE1 181029Z 14007KT 25/18 A2993 RMK A01 T02530175  RH  062%=      5-min Rain = 0
KLE1 181030Z 14007KT 25/18 A2993 RMK A01 T02520175  RH  062%=      5-min Rain = 0
KLE1 181031Z 14007KT 25/18 A2992 RMK A01 T02520175  RH  063%=      5-min Rain = 0
KLE1 181032Z 14007KT 25/18 A2992 RMK A01 T02510175  RH  063%=      5-min Rain = 0
KLE1 181033Z 14008KT 25/18 A2992 RMK A01 T02510175  RH  063%=      5-min Rain = 0
KLE1 181034Z 14008KT 25/18 A2992 RMK A01 T02510176  RH  063%=      5-min Rain = 0
KLE1 181035Z 14007KT 25/18 A2992 RMK A01 T02510175  RH  063%=      5-min Rain = 0
KLE1 181036Z 14008KT 25/18 A2992 RMK A01 T02510176  RH  063%=      5-min Rain = 0
KLE1 181037Z 14007KT 25/18 A2992 RMK A01 T02510175  RH  063%=      5-min Rain = 0
KLE1 181038Z 14007KT 25/18 A2992 RMK A01 T02500176  RH  063%=      5-min Rain = 0
KLE1 181039Z 14007KT 25/18 A2992 RMK A01 T02500176  RH  063%=      5-min Rain = 0
KLE1 181040Z 14007KT 25/18 A2992 RMK A01 T02500175  RH  063%=      5-min Rain = 0
KLE1 181041Z 13007KT 25/18 A2992 RMK A01 T02500175  RH  063%=      5-min Rain = 0
KLE1 181042Z 13007KT 25/18 A2992 RMK A01 T02500175  RH  063%=      5-min Rain = 0
KLE1 181043Z 13006KT 25/18 A2992 RMK A01 T02500176  RH  063%=      5-min Rain = 0
KLE1 181044Z 13006KT 25/18 A2992 RMK A01 T02500176  RH  063%=      5-min Rain = 0
KLE1 181045Z 13006KT 25/18 A2992 RMK A01 T02500176  RH  063%=      5-min Rain = 0
KLE1 181046Z 13005KT 25/18 A2992 RMK A01 T02500175  RH  063%=      5-min Rain = 0
KLE1 181047Z 12006KT 25/18 A2992 RMK A01 T02500176  RH  063%=      5-min Rain = 0
KLE1 181048Z 12005KT 25/18 A2993 RMK A01 T02490175  RH  063%=      5-min Rain = 0
KLE1 181049Z 13005KT 25/18 A2993 RMK A01 T02490175  RH  064%=      5-min Rain = 0
KLE1 181050Z 12004KT 25/18 A2993 RMK A01 T02480176  RH  064%=      5-min Rain = 0
KLE1 181051Z 12004KT 25/18 A2993 RMK A01 T02480176  RH  064%=      5-min Rain = 0
KLE1 181052Z 11004KT 25/18 A2993 RMK A01 T02480175  RH  064%=      5-min Rain = 0
KLE1 181053Z 11004KT 25/18 A2993 RMK A01 T02480175  RH  064%=      5-min Rain = 0
KLE1 181054Z 11004KT 25/18 A2993 RMK A01 T02470175  RH  064%=      5-min Rain = 0
KLE1 181055Z 11004KT 25/18 A2993 RMK A01 T02470175  RH  064%=      5-min Rain = 0
KLE1 181056Z 11004KT 25/18 A2993 RMK A01 T02470175  RH  064%=      5-min Rain = 0
KLE1 181057Z 10004KT 25/18 A2993 RMK A01 T02460175  RH  065%=      5-min Rain = 0
KLE1 181058Z 10005KT 25/18 A2993 RMK A01 T02460175  RH  065%=      5-min Rain = 0
KLE1 181059Z 11004KT 25/18 A2993 RMK A01 T02460175  RH  065%=      5-min Rain = 0
KLE1 181100Z 11004KT 25/18 A2993 RMK A01 T02450175  RH  065%=      5-min Rain = 0
KLE1 181101Z 11004KT 25/18 A2993 RMK A01 T02450175  RH  065%=      5-min Rain = 0
KLE1 181102Z 11004KT 25/17 A2993 RMK A01 T02450174  RH  065%=      5-min Rain = 0
KLE1 181103Z 12004KT 24/17 A2993 RMK A01 T02440174  RH  065%=      5-min Rain = 0
KLE1 181104Z 11004KT 24/17 A2993 RMK A01 T02440174  RH  065%=      5-min Rain = 0
KLE1 181105Z 11004KT 24/18 A2993 RMK A01 T02440175  RH  065%=      5-min Rain = 0
KLE1 181106Z 11005KT 25/18 A2993 RMK A01 T02450175  RH  065%=      5-min Rain = 0
KLE1 181107Z 11005KT 24/17 A2993 RMK A01 T02440174  RH  065%=      5-min Rain = 0
KLE1 181108Z 12005KT 24/17 A2993 RMK A01 T02440174  RH  065%=      5-min Rain = 0
KLE1 181109Z 12005KT 24/17 A2993 RMK A01 T02430174  RH  065%=      5-min Rain = 0
KLE1 181110Z 12005KT 24/17 A2993 RMK A01 T02430174  RH  065%=      5-min Rain = 0
KLE1 181111Z 11005KT 24/17 A2993 RMK A01 T02430174  RH  066%=      5-min Rain = 0
KLE1 181112Z 11005KT 24/17 A2993 RMK A01 T02420174  RH  066%=      5-min Rain = 0
KLE1 181113Z 12005KT 24/18 A2993 RMK A01 T02420175  RH  066%=      5-min Rain = 0
KLE1 181114Z 12006KT 24/18 A2993 RMK A01 T02420175  RH  066%=      5-min Rain = 0
KLE1 181115Z 12005KT 24/18 A2993 RMK A01 T02420175  RH  066%=      5-min Rain = 0
KLE1 181116Z 11006KT 24/18 A2993 RMK A01 T02420175  RH  066%=      5-min Rain = 0
KLE1 181117Z 12006KT 24/18 A2993 RMK A01 T02420175  RH  066%=      5-min Rain = 0
KLE1 181118Z 11005KT 24/18 A2993 RMK A01 T02410175  RH  066%=      5-min Rain = 0
KLE1 181119Z 11005KT 24/17 A2993 RMK A01 T02400174  RH  067%=      5-min Rain = 0
KLE1 181120Z 12005KT 24/18 A2993 RMK A01 T02400175  RH  067%=      5-min Rain = 0
KLE1 181121Z 12006KT 24/18 A2993 RMK A01 T02400175  RH  067%=      5-min Rain = 0
KLE1 181122Z 12006KT 24/18 A2993 RMK A01 T02400175  RH  067%=      5-min Rain = 0
KLE1 181123Z 12005KT 24/18 A2993 RMK A01 T02400175  RH  067%=      5-min Rain = 0
KLE1 181124Z 12005KT 24/18 A2993 RMK A01 T02400175  RH  067%=      5-min Rain = 0
KLE1 181125Z 12005KT 24/18 A2993 RMK A01 T02400176  RH  067%=      5-min Rain = 0
KLE1 181126Z 12006KT 24/18 A2993 RMK A01 T02400175  RH  067%=      5-min Rain = 0
KLE1 181127Z 12005KT 24/18 A2993 RMK A01 T02400176  RH  067%=      5-min Rain = 0
KLE1 181128Z 12005KT 24/18 A2993 RMK A01 T02400176  RH  067%=      5-min Rain = 0
KLE1 181129Z 12006KT 24/18 A2993 RMK A01 T02400176  RH  067%=      5-min Rain = 0
KLE1 181130Z 12006KT 24/18 A2993 RMK A01 T02400176  RH  067%=      5-min Rain = 0
KLE1 181131Z 12005KT 24/18 A2993 RMK A01 T02400176  RH  067%=      5-min Rain = 0
KLE1 181132Z 12005KT 24/18 A2993 RMK A01 T02400176  RH  067%=      5-min Rain = 0
KLE1 181133Z 12005KT 24/18 A2993 RMK A01 T02400176  RH  067%=      5-min Rain = 0
KLE1 181134Z 12005KT 24/18 A2993 RMK A01 T02400176  RH  067%=      5-min Rain = 0
KLE1 181135Z 12006KT 24/18 A2993 RMK A01 T02400176  RH  067%=      5-min Rain = 0
KLE1 181136Z 12006KT 24/18 A2993 RMK A01 T02400176  RH  067%=      5-min Rain = 0
KLE1 181137Z 12005KT 24/18 A2993 RMK A01 T02400176  RH  068%=      5-min Rain = 0
KLE1 181138Z 12006KT 24/18 A2993 RMK A01 T02400176  RH  068%=      5-min Rain = 0
KLE1 181139Z 12005KT 24/18 A2993 RMK A01 T02400176  RH  068%=      5-min Rain = 0
KLE1 181140Z 13006KT 24/18 A2993 RMK A01 T02400176  RH  067%=      5-min Rain = 0
KLE1 181141Z 13006KT 24/18 A2993 RMK A01 T02400176  RH  067%=      5-min Rain = 0
KLE1 181142Z 13005KT 24/18 A2993 RMK A01 T02410176  RH  067%=      5-min Rain = 0
KLE1 181143Z 12005KT 24/18 A2993 RMK A01 T02430177  RH  067%=      5-min Rain = 0
KLE1 181144Z 13005KT 24/18 A2993 RMK A01 T02430176  RH  066%=      5-min Rain = 0
KLE1 181145Z 13006KT 24/18 A2993 RMK A01 T02420177  RH  067%=      5-min Rain = 0
KLE1 181146Z 13006KT 24/18 A2993 RMK A01 T02410176  RH  067%=      5-min Rain = 0
KLE1 181147Z 12007KT 24/18 A2993 RMK A01 T02400176  RH  067%=      5-min Rain = 0
KLE1 181148Z 13007KT 24/18 A2993 RMK A01 T02400176  RH  068%=      5-min Rain = 0
KLE1 181149Z 13007KT 24/18 A2993 RMK A01 T02400176  RH  068%=      5-min Rain = 0
KLE1 181150Z 12007KT 24/18 A2993 RMK A01 T02400177  RH  068%=      5-min Rain = 0
KLE1 181151Z 13008KT 24/18 A2993 RMK A01 T02400177  RH  068%=      5-min Rain = 0
KLE1 181152Z 13006KT 24/18 A2993 RMK A01 T02410177  RH  067%=      5-min Rain = 0
KLE1 181153Z 13006KT 24/18 A2993 RMK A01 T02410177  RH  067%=      5-min Rain = 0
KLE1 181154Z 13006KT 24/18 A2993 RMK A01 T02420177  RH  067%=      5-min Rain = 0
KLE1 181155Z 13006KT 24/18 A2993 RMK A01 T02410177  RH  067%=      5-min Rain = 0
KLE1 181156Z 13007KT 24/18 A2993 RMK A01 T02420177  RH  067%=      5-min Rain = 0
KLE1 181157Z 13007KT 24/18 A2993 RMK A01 T02420177  RH  067%=      5-min Rain = 0
KLE1 181158Z 12007KT 24/18 A2993 RMK A01 T02420177  RH  067%=      5-min Rain = 0
KLE1 181159Z 13006KT 24/18 A2993 RMK A01 T02430177  RH  067%=      5-min Rain = 0
KLE1 181200Z 13005KT 24/18 A2993 RMK A01 T02440177  RH  066%=      5-min Rain = 0
KLE1 181201Z 13006KT 24/18 A2993 RMK A01 T02440177  RH  066%=      5-min Rain = 0
KLE1 181202Z 13006KT 24/18 A2993 RMK A01 T02430177  RH  067%=      5-min Rain = 0
KLE1 181203Z 13005KT 24/18 A2993 RMK A01 T02430177  RH  067%=      5-min Rain = 0
KLE1 181204Z 13005KT 24/18 A2993 RMK A01 T02430177  RH  067%=      5-min Rain = 0
KLE1 181205Z 12005KT 24/18 A2993 RMK A01 T02430177  RH  066%=      5-min Rain = 0
KLE1 181206Z 12005KT 24/18 A2993 RMK A01 T02440177  RH  066%=      5-min Rain = 0
KLE1 181207Z 12005KT 24/18 A2993 RMK A01 T02440177  RH  066%=      5-min Rain = 0
KLE1 181208Z 12005KT 24/18 A2993 RMK A01 T02440178  RH  066%=      5-min Rain = 0
KLE1 181209Z 12004KT 24/18 A2993 RMK A01 T02440178  RH  066%=      5-min Rain = 0
KLE1 181210Z 12004KT 25/18 A2993 RMK A01 T02450178  RH  066%=      5-min Rain = 0
KLE1 181211Z 12004KT 25/18 A2993 RMK A01 T02450178  RH  066%=      5-min Rain = 0
KLE1 181212Z 12005KT 25/18 A2993 RMK A01 T02450178  RH  066%=      5-min Rain = 0
KLE1 181213Z 12005KT 25/18 A2993 RMK A01 T02450178  RH  066%=      5-min Rain = 0
KLE1 181214Z 12005KT 25/18 A2993 RMK A01 T02460179  RH  066%=      5-min Rain = 0
KLE1 181215Z 12005KT 25/18 A2993 RMK A01 T02460178  RH  066%=      5-min Rain = 0
KLE1 181216Z 12005KT 25/18 A2993 RMK A01 T02460178  RH  066%=      5-min Rain = 0
KLE1 181217Z 12005KT 25/18 A2993 RMK A01 T02460178  RH  066%=      5-min Rain = 0
KLE1 181218Z 12005KT 25/18 A2993 RMK A01 T02460179  RH  066%=      5-min Rain = 0
KLE1 181219Z 12005KT 25/18 A2993 RMK A01 T02460179  RH  066%=      5-min Rain = 0
KLE1 181220Z 12005KT 25/18 A2993 RMK A01 T02460179  RH  066%=      5-min Rain = 0
KLE1 181221Z 12005KT 25/18 A2993 RMK A01 T02470179  RH  066%=      5-min Rain = 0
KLE1 181222Z 12005KT 25/18 A2993 RMK A01 T02470179  RH  066%=      5-min Rain = 0
KLE1 181223Z 12005KT 25/18 A2993 RMK A01 T02470180  RH  066%=      5-min Rain = 0
KLE1 181224Z 12005KT 25/18 A2993 RMK A01 T02480180  RH  066%=      5-min Rain = 0
KLE1 181225Z 13005KT 25/18 A2993 RMK A01 T02480180  RH  066%=      5-min Rain = 0
KLE1 181226Z 13005KT 25/18 A2993 RMK A01 T02480180  RH  066%=      5-min Rain = 0
KLE1 181227Z 13005KT 25/18 A2993 RMK A01 T02480180  RH  066%=      5-min Rain = 0
KLE1 181228Z 13006KT 25/18 A2993 RMK A01 T02490181  RH  066%=      5-min Rain = 0
KLE1 181229Z 13006KT 25/18 A2993 RMK A01 T02490180  RH  065%=      5-min Rain = 0
KLE1 181230Z 13006KT 25/18 A2993 RMK A01 T02500181  RH  065%=      5-min Rain = 0
KLE1 181231Z 12005KT 25/18 A2993 RMK A01 T02500181  RH  065%=      5-min Rain = 0
KLE1 181232Z 12004KT 25/18 A2993 RMK A01 T02510181  RH  065%=      5-min Rain = 0
KLE1 181233Z 12005KT 25/18 A2993 RMK A01 T02520181  RH  065%=      5-min Rain = 0
KLE1 181234Z 12005KT 25/18 A2993 RMK A01 T02520181  RH  065%=      5-min Rain = 0
KLE1 181235Z 13005KT 25/18 A2993 RMK A01 T02530181  RH  064%=      5-min Rain = 0
KLE1 181236Z 12004KT 25/18 A2993 RMK A01 T02530181  RH  064%=      5-min Rain = 0
KLE1 181237Z 12005KT 25/18 A2993 RMK A01 T02540182  RH  064%=      5-min Rain = 0
KLE1 181238Z 11004KT 25/18 A2993 RMK A01 T02540181  RH  064%=      5-min Rain = 0
KLE1 181239Z 11004KT 26/18 A2993 RMK A01 T02550181  RH  064%=      5-min Rain = 0
KLE1 181240Z 11004KT 26/18 A2993 RMK A01 T02550182  RH  064%=      5-min Rain = 0
KLE1 181241Z 10004KT 26/18 A2993 RMK A01 T02550182  RH  064%=      5-min Rain = 0
KLE1 181242Z 10004KT 26/18 A2993 RMK A01 T02560182  RH  064%=      5-min Rain = 0
KLE1 181243Z 10004KT 26/18 A2993 RMK A01 T02560183  RH  064%=      5-min Rain = 0
KLE1 181244Z 10003KT 26/18 A2993 RMK A01 T02560183  RH  064%=      5-min Rain = 0
KLE1 181245Z 10004KT 26/18 A2993 RMK A01 T02560183  RH  064%=      5-min Rain = 0
KLE1 181246Z 10004KT 26/18 A2993 RMK A01 T02570184  RH  064%=      5-min Rain = 0
KLE1 181247Z 10004KT 26/18 A2993 RMK A01 T02570183  RH  064%=      5-min Rain = 0
KLE1 181248Z 10005KT 26/18 A2993 RMK A01 T02570183  RH  064%=      5-min Rain = 0
KLE1 181249Z 10005KT 26/18 A2993 RMK A01 T02580183  RH  064%=      5-min Rain = 0
KLE1 181250Z 10004KT 26/18 A2993 RMK A01 T02580184  RH  064%=      5-min Rain = 0
KLE1 181251Z 10004KT 26/18 A2993 RMK A01 T02580184  RH  064%=      5-min Rain = 0
KLE1 181252Z 10004KT 26/19 A2993 RMK A01 T02580185  RH  064%=      5-min Rain = 0
KLE1 181253Z 10004KT 26/19 A2993 RMK A01 T02600185  RH  064%=      5-min Rain = 0
KLE1 181254Z 09003KT 26/19 A2993 RMK A01 T02600186  RH  063%=      5-min Rain = 0
KLE1 181255Z 10003KT 26/19 A2993 RMK A01 T02610186  RH  063%=      5-min Rain = 0
KLE1 181256Z 09003KT 26/19 A2993 RMK A01 T02610186  RH  063%=      5-min Rain = 0
KLE1 181257Z 10003KT 26/19 A2993 RMK A01 T02620186  RH  063%=      5-min Rain = 0
KLE1 181258Z 09003KT 26/19 A2993 RMK A01 T02620187  RH  063%=      5-min Rain = 0
KLE1 181259Z 10004KT 26/19 A2993 RMK A01 T02620186  RH  063%=      5-min Rain = 0
KLE1 181300Z 10003KT 26/19 A2993 RMK A01 T02630187  RH  063%=      5-min Rain = 0
KLE1 181301Z 11005KT 26/19 A2993 RMK A01 T02640187  RH  063%=      5-min Rain = 0
KLE1 181302Z 11005KT 27/19 A2993 RMK A01 T02650185  RH  062%=      5-min Rain = 0
KLE1 181303Z 10005KT 27/19 A2993 RMK A01 T02650186  RH  062%=      5-min Rain = 0
KLE1 181304Z 11005KT 27/19 A2993 RMK A01 T02650186  RH  062%=      5-min Rain = 0
KLE1 181305Z 10005KT 27/19 A2993 RMK A01 T02650185  RH  062%=      5-min Rain = 0
KLE1 181306Z 10006KT 27/19 A2993 RMK A01 T02650185  RH  062%=      5-min Rain = 0
KLE1 181307Z 11005KT 27/19 A2993 RMK A01 T02650186  RH  062%=      5-min Rain = 0
KLE1 181308Z 11005KT 27/19 A2993 RMK A01 T02650185  RH  062%=      5-min Rain = 0
KLE1 181309Z 11005KT 27/19 A2993 RMK A01 T02650185  RH  062%=      5-min Rain = 0
KLE1 181310Z 11005KT 27/19 A2993 RMK A01 T02650186  RH  062%=      5-min Rain = 0
KLE1 181311Z 11006KT 27/19 A2993 RMK A01 T02660187  RH  062%=      5-min Rain = 0
KLE1 181312Z 12006KT 27/19 A2993 RMK A01 T02670186  RH  061%=      5-min Rain = 0
KLE1 181313Z 11006KT 27/19 A2993 RMK A01 T02670186  RH  061%=      5-min Rain = 0
KLE1 181314Z 12005KT 27/19 A2993 RMK A01 T02670187  RH  061%=      5-min Rain = 0
KLE1 181315Z 12005KT 27/19 A2993 RMK A01 T02680188  RH  062%=      5-min Rain = 0
KLE1 181316Z 12006KT 27/19 A2993 RMK A01 T02690187  RH  061%=      5-min Rain = 0
KLE1 181317Z 12006KT 27/19 A2993 RMK A01 T02690186  RH  061%=      5-min Rain = 0
KLE1 181318Z 12006KT 27/19 A2993 RMK A01 T02690188  RH  061%=      5-min Rain = 0
KLE1 181319Z 12007KT 27/19 A2993 RMK A01 T02700188  RH  061%=      5-min Rain = 0
KLE1 181320Z 12008KT 27/19 A2993 RMK A01 T02700186  RH  060%=      5-min Rain = 0
KLE1 181321Z 12008KT 27/19 A2993 RMK A01 T02710185  RH  060%=      5-min Rain = 0
KLE1 181322Z 12007KT 27/19 A2993 RMK A01 T02710186  RH  060%=      5-min Rain = 0
KLE1 181323Z 12007KT 27/19 A2993 RMK A01 T02710187  RH  060%=      5-min Rain = 0
KLE1 181324Z 12008KT 27/19 A2993 RMK A01 T02720186  RH  060%=      5-min Rain = 0
KLE1 181325Z 12007KT 27/19 A2993 RMK A01 T02710187  RH  060%=      5-min Rain = 0
KLE1 181326Z 11006KT 27/19 A2993 RMK A01 T02710186  RH  060%=      5-min Rain = 0
KLE1 181327Z 12006KT 27/19 A2993 RMK A01 T02710187  RH  060%=      5-min Rain = 0
KLE1 181328Z 13006KT 27/19 A2993 RMK A01 T02720188  RH  060%=      5-min Rain = 0
KLE1 181329Z 12007KT 27/19 A2993 RMK A01 T02730186  RH  059%=      5-min Rain = 0
KLE1 181330Z 12006KT 27/19 A2993 RMK A01 T02730187  RH  059%=      5-min Rain = 0
KLE1 181331Z 12007KT 27/19 A2993 RMK A01 T02730186  RH  059%=      5-min Rain = 0
KLE1 181332Z 13007KT 27/19 A2993 RMK A01 T02730187  RH  059%=      5-min Rain = 0
KLE1 181333Z 13006KT 27/19 A2993 RMK A01 T02730186  RH  059%=      5-min Rain = 0
KLE1 181334Z 12006KT 27/19 A2993 RMK A01 T02740187  RH  059%=      5-min Rain = 0
KLE1 181335Z 13005KT 27/19 A2993 RMK A01 T02740187  RH  059%=      5-min Rain = 0
KLE1 181336Z 12005KT 28/19 A2993 RMK A01 T02750188  RH  059%=      5-min Rain = 0
KLE1 181337Z 12005KT 28/19 A2993 RMK A01 T02760188  RH  059%=      5-min Rain = 0
KLE1 181338Z 11006KT 28/19 A2993 RMK A01 T02760188  RH  059%=      5-min Rain = 0
KLE1 181339Z 11006KT 28/19 A2993 RMK A01 T02770188  RH  058%=      5-min Rain = 0
KLE1 181340Z 13006KT 28/19 A2993 RMK A01 T02780187  RH  058%=      5-min Rain = 0
KLE1 181341Z 14005KT 28/19 A2993 RMK A01 T02770187  RH  058%=      5-min Rain = 0
KLE1 181342Z 12005KT 28/19 A2993 RMK A01 T02760187  RH  058%=      5-min Rain = 0
KLE1 181343Z 12005KT 28/19 A2993 RMK A01 T02760187  RH  059%=      5-min Rain = 0
KLE1 181344Z 12006KT 28/19 A2993 RMK A01 T02760188  RH  059%=      5-min Rain = 0
KLE1 181345Z 12006KT 28/19 A2993 RMK A01 T02770188  RH  058%=      5-min Rain = 0
KLE1 181346Z 11005KT 28/19 A2993 RMK A01 T02780188  RH  058%=      5-min Rain = 0
KLE1 181347Z 13007KT 28/19 A2993 RMK A01 T02780188  RH  058%=      5-min Rain = 0
KLE1 181348Z 13007KT 28/19 A2993 RMK A01 T02780188  RH  058%=      5-min Rain = 0
KLE1 181349Z 13007KT 28/19 A2992 RMK A01 T02780189  RH  058%=      5-min Rain = 0
KLE1 181350Z 13007KT 28/19 A2992 RMK A01 T02800190  RH  058%=      5-min Rain = 0
KLE1 181351Z 14005KT 28/19 A2993 RMK A01 T02810189  RH  058%=      5-min Rain = 0
KLE1 181352Z 13006KT 28/19 A2992 RMK A01 T02810190  RH  058%=      5-min Rain = 0
KLE1 181353Z 14007KT 28/19 A2992 RMK A01 T02820190  RH  057%=      5-min Rain = 0
KLE1 181354Z 13007KT 28/19 A2992 RMK A01 T02820189  RH  057%=      5-min Rain = 0
KLE1 181355Z 15007KT 28/19 A2992 RMK A01 T02820190  RH  057%=      5-min Rain = 0
KLE1 181356Z 14007KT 28/19 A2992 RMK A01 T02820190  RH  057%=      5-min Rain = 0
KLE1 181357Z 14007KT 28/19 A2992 RMK A01 T02830190  RH  057%=      5-min Rain = 0
KLE1 181358Z 14005KT 28/19 A2992 RMK A01 T02830190  RH  057%=      5-min Rain = 0
KLE1 181359Z 14005KT 28/19 A2992 RMK A01 T02840189  RH  057%=      5-min Rain = 0
KLE1 181400Z 15005KT 29/19 A2992 RMK A01 T02850190  RH  057%=      5-min Rain = 0
KLE1 181401Z 15004KT 29/19 A2993 RMK A01 T02850190  RH  056%=      5-min Rain = 0
KLE1 181402Z 14006KT 29/19 A2993 RMK A01 T02850191  RH  056%=      5-min Rain = 0
KLE1 181403Z 14005KT 29/19 A2993 RMK A01 T02860189  RH  056%=      5-min Rain = 0
KLE1 181404Z 14006KT 29/19 A2993 RMK A01 T02850191  RH  056%=      5-min Rain = 0
KLE1 181405Z 13005KT 29/19 A2993 RMK A01 T02860190  RH  056%=      5-min Rain = 0
KLE1 181406Z 13007KT 29/19 A2992 RMK A01 T02850191  RH  056%=      5-min Rain = 0
KLE1 181407Z 14005KT 29/19 A2993 RMK A01 T02860190  RH  056%=      5-min Rain = 0
KLE1 181408Z 12005KT 29/19 A2992 RMK A01 T02860191  RH  056%=      5-min Rain = 0
KLE1 181409Z 14006KT 29/19 A2992 RMK A01 T02880193  RH  056%=      5-min Rain = 0
KLE1 181410Z 15006KT 29/19 A2993 RMK A01 T02900191  RH  055%=      5-min Rain = 0
KLE1 181411Z 14004KT 29/19 A2993 RMK A01 T02900191  RH  055%=      5-min Rain = 0
KLE1 181412Z 14006KT 29/19 A2993 RMK A01 T02910193  RH  055%=      5-min Rain = 0
KLE1 181413Z 15006KT 29/19 A2992 RMK A01 T02920192  RH  055%=      5-min Rain = 0
KLE1 181414Z 15007KT 29/19 A2992 RMK A01 T02930193  RH  055%=      5-min Rain = 0
KLE1 181415Z 14006KT 29/19 A2992 RMK A01 T02940191  RH  054%=      5-min Rain = 0
KLE1 181416Z 15006KT 29/19 A2992 RMK A01 T02940192  RH  054%=      5-min Rain = 0
KLE1 181417Z 17006KT 30/19 A2992 RMK A01 T02950194  RH  055%=      5-min Rain = 0
KLE1 181418Z 15006KT 30/20 A2992 RMK A01 T02980195  RH  054%=      5-min Rain = 0
KLE1 181419Z 14007KT 30/20 A2992 RMK A01 T03000196  RH  054%=      5-min Rain = 0
KLE1 181420Z 16010KT 30/19 A2992 RMK A01 T03020193  RH  052%=      5-min Rain = 0
KLE1 181421Z 16009KT 30/19 A2992 RMK A01 T03040190  RH  051%=      5-min Rain = 0
KLE1 181422Z 18009KT 31/19 A2992 RMK A01 T03050191  RH  051%=      5-min Rain = 0
KLE1 181423Z 18009KT 31/19 A2992 RMK A01 T03050190  RH  050%=      5-min Rain = 0
KLE1 181424Z 17009KT 31/19 A2992 RMK A01 T03050190  RH  050%=      5-min Rain = 0
KLE1 181425Z 19009G14KT 30/19 A2992 RMK A01 T03040189  RH  050%=      5-min Rain = 0
KLE1 181426Z 18011G16KT 31/19 A2992 RMK A01 T03050186  RH  049%=      5-min Rain = 0
KLE1 181427Z 19013KT 31/19 A2992 RMK A01 T03060186  RH  049%=      5-min Rain = 0
KLE1 181428Z 19012KT 31/19 A2992 RMK A01 T03060187  RH  049%=      5-min Rain = 0
KLE1 181429Z 18013KT 31/19 A2992 RMK A01 T03070189  RH  049%=      5-min Rain = 0
KLE1 181430Z 19011KT 31/19 A2992 RMK A01 T03090189  RH  049%=      5-min Rain = 0
KLE1 181431Z 19011KT 31/19 A2992 RMK A01 T03100188  RH  048%=      5-min Rain = 0
KLE1 181432Z 19013KT 31/19 A2991 RMK A01 T03110188  RH  048%=      5-min Rain = 0
KLE1 181433Z 21013KT 31/19 A2991 RMK A01 T03120186  RH  047%=      5-min Rain = 0
KLE1 181434Z 20013KT 31/19 A2991 RMK A01 T03120187  RH  047%=      5-min Rain = 0
KLE1 181435Z 19012KT 31/19 A2991 RMK A01 T03120187  RH  047%=      5-min Rain = 0
KLE1 181436Z 19013KT 31/19 A2991 RMK A01 T03110187  RH  048%=      5-min Rain = 0
KLE1 181437Z 20012KT 31/19 A2991 RMK A01 T03110188  RH  048%=      5-min Rain = 0
KLE1 181438Z 19010KT 31/19 A2991 RMK A01 T03110190  RH  049%=      5-min Rain = 0
KLE1 181439Z 19009KT 31/19 A2991 RMK A01 T03130191  RH  048%=      5-min Rain = 0
KLE1 181440Z 19008KT 32/19 A2991 RMK A01 T03150192  RH  048%=      5-min Rain = 0
KLE1 181441Z 19009KT 32/19 A2991 RMK A01 T03180190  RH  047%=      5-min Rain = 0
KLE1 181442Z 20012KT 32/19 A2991 RMK A01 T03180188  RH  046%=      5-min Rain = 0
KLE1 181443Z 19013G18KT 32/19 A2991 RMK A01 T03170185  RH  046%=      5-min Rain = 0
KLE1 181444Z 19013KT 32/18 A2991 RMK A01 T03170184  RH  045%=      5-min Rain = 0
KLE1 181445Z 19013KT 32/19 A2991 RMK A01 T03170185  RH  045%=      5-min Rain = 0
KLE1 181446Z 20011KT 32/19 A2991 RMK A01 T03180187  RH  046%=      5-min Rain = 0
KLE1 181447Z 20011KT 32/19 A2991 RMK A01 T03200188  RH  045%=      5-min Rain = 0
KLE1 181448Z 20009KT 32/19 A2991 RMK A01 T03210188  RH  045%=      5-min Rain = 0
KLE1 181449Z 21013KT 32/19 A2991 RMK A01 T03220187  RH  045%=      5-min Rain = 0
KLE1 181450Z 21013KT 32/19 A2991 RMK A01 T03210187  RH  045%=      5-min Rain = 0
KLE1 181451Z 21013KT 32/19 A2991 RMK A01 T03210186  RH  045%=      5-min Rain = 0
KLE1 181452Z 20010KT 32/19 A2991 RMK A01 T03200185  RH  045%=      5-min Rain = 0
KLE1 181453Z 20016KT 32/19 A2991 RMK A01 T03220187  RH  045%=      5-min Rain = 0
KLE1 181454Z 20015G20KT 32/18 A2991 RMK A01 T03220182  RH  043%=      5-min Rain = 0
KLE1 181455Z 20013KT 32/18 A2991 RMK A01 T03210183  RH  044%=      5-min Rain = 0
KLE1 181456Z 18015KT 32/18 A2991 RMK A01 T03210184  RH  044%=      5-min Rain = 0
KLE1 181457Z 18013KT 32/19 A2991 RMK A01 T03210185  RH  045%=      5-min Rain = 0
KLE1 181458Z 19013KT 32/19 A2991 RMK A01 T03210187  RH  045%=      5-min Rain = 0
KLE1 181459Z 21012KT 32/19 A2991 RMK A01 T03220185  RH  044%=      5-min Rain = 0
KLE1 181500Z 21010KT 32/19 A2991 RMK A01 T03220186  RH  044%=      5-min Rain = 0
KLE1 181501Z 21010KT 32/19 A2991 RMK A01 T03240185  RH  044%=      5-min Rain = 0
KLE1 181502Z 20009KT 32/19 A2991 RMK A01 T03240186  RH  044%=      5-min Rain = 0
KLE1 181503Z 19012KT 33/19 A2991 RMK A01 T03260187  RH  044%=      5-min Rain = 0
KLE1 181504Z 18015KT 33/19 A2991 RMK A01 T03270186  RH  043%=      5-min Rain = 0
KLE1 181505Z 19011KT 33/18 A2991 RMK A01 T03250183  RH  043%=      5-min Rain = 0
KLE1 181506Z 18012KT 32/18 A2991 RMK A01 T03240184  RH  043%=      5-min Rain = 0
KLE1 181507Z 18013KT 33/19 A2991 RMK A01 T03250186  RH  044%=      5-min Rain = 0
KLE1 181508Z 18013KT 33/18 A2991 RMK A01 T03260184  RH  043%=      5-min Rain = 0
KLE1 181509Z 19012KT 33/19 A2991 RMK A01 T03260185  RH  043%=      5-min Rain = 0
KLE1 181510Z 19011KT 33/19 A2991 RMK A01 T03260185  RH  043%=      5-min Rain = 0
KLE1 181511Z 20010KT 33/19 A299 RMK A01 T03270186  RH  043%=      5-min Rain = 0
KLE1 181512Z 20012KT 33/19 A299 RMK A01 T03300186  RH  043%=      5-min Rain = 0
KLE1 181513Z 19015KT 33/19 A299 RMK A01 T03310185  RH  042%=      5-min Rain = 0
KLE1 181514Z 20014KT 33/18 A299 RMK A01 T03290182  RH  042%=      5-min Rain = 0
KLE1 181515Z 19013KT 33/18 A299 RMK A01 T03260182  RH  042%=      5-min Rain = 0
KLE1 181516Z 21011KT 33/18 A299 RMK A01 T03260182  RH  043%=      5-min Rain = 0
KLE1 181517Z 21011KT 33/18 A299 RMK A01 T03260183  RH  043%=      5-min Rain = 0
KLE1 181518Z 19012G17KT 33/19 A299 RMK A01 T03290186  RH  043%=      5-min Rain = 0
KLE1 181519Z 18015KT 33/18 A299 RMK A01 T03310183  RH  042%=      5-min Rain = 0
KLE1 181520Z 19013KT 33/18 A299 RMK A01 T03300184  RH  042%=      5-min Rain = 0
KLE1 181521Z 20014KT 33/18 A299 RMK A01 T03310183  RH  042%=      5-min Rain = 0
KLE1 181522Z 19014KT 33/18 A299 RMK A01 T03310183  RH  042%=      5-min Rain = 0
KLE1 181523Z 19011KT 33/18 A299 RMK A01 T03310183  RH  042%=      5-min Rain = 0
KLE1 181524Z 18013KT 33/19 A299 RMK A01 T03340186  RH  042%=      5-min Rain = 0
KLE1 181525Z 18013KT 34/19 A299 RMK A01 T03360185  RH  041%=      5-min Rain = 0
KLE1 181526Z 19014KT 34/18 A299 RMK A01 T03350182  RH  040%=      5-min Rain = 0
KLE1 181527Z 19016KT 33/18 A299 RMK A01 T03320183  RH  041%=      5-min Rain = 0
KLE1 181528Z 20014KT 33/18 A299 RMK A01 T03320184  RH  042%=      5-min Rain = 0
KLE1 181529Z 21012KT 33/18 A299 RMK A01 T03320183  RH  041%=      5-min Rain = 0
KLE1 181530Z 21016KT 33/18 A299 RMK A01 T03330182  RH  041%=      5-min Rain = 0
KLE1 181531Z 20013KT 33/18 A299 RMK A01 T03320182  RH  041%=      5-min Rain = 0
KLE1 181532Z 20013KT 33/18 A299 RMK A01 T03320182  RH  041%=      5-min Rain = 0
KLE1 181533Z 21014KT 33/18 A299 RMK A01 T03330183  RH  041%=      5-min Rain = 0
KLE1 181534Z 21015KT 33/18 A299 RMK A01 T03330183  RH  041%=      5-min Rain = 0
KLE1 181535Z 20015KT 33/18 A299 RMK A01 T03340182  RH  041%=      5-min Rain = 0
KLE1 181536Z 21014KT 34/18 A299 RMK A01 T03370184  RH  040%=      5-min Rain = 0
KLE1 181537Z 20013KT 34/18 A299 RMK A01 T03390182  RH  039%=      5-min Rain = 0
KLE1 181538Z 21014KT 34/18 A299 RMK A01 T03390184  RH  040%=      5-min Rain = 0
KLE1 181539Z 20013KT 34/18 A299 RMK A01 T03380183  RH  040%=      5-min Rain = 0
KLE1 181540Z 20012KT 34/18 A299 RMK A01 T03360183  RH  041%=      5-min Rain = 0
KLE1 181541Z 22012KT 34/18 A299 RMK A01 T03360184  RH  041%=      5-min Rain = 0
KLE1 181542Z 23011KT 34/18 A299 RMK A01 T03390183  RH  040%=      5-min Rain = 0
KLE1 181543Z 22011KT 34/18 A299 RMK A01 T03390182  RH  039%=      5-min Rain = 0
KLE1 181544Z 20012KT 34/18 A299 RMK A01 T03370184  RH  040%=      5-min Rain = 0
KLE1 181545Z 20015KT 34/18 A299 RMK A01 T03380183  RH  040%=      5-min Rain = 0
KLE1 181546Z 19011KT 34/19 A299 RMK A01 T03400185  RH  040%=      5-min Rain = 0
KLE1 181547Z 18012KT 34/18 A299 RMK A01 T03400183  RH  040%=      5-min Rain = 0
KLE1 181548Z 19013KT 34/18 A299 RMK A01 T03390183  RH  040%=      5-min Rain = 0
KLE1 181549Z 19011KT 34/18 A299 RMK A01 T03350181  RH  040%=      5-min Rain = 0
KLE1 181550Z 19012KT 34/18 A299 RMK A01 T03350182  RH  040%=      5-min Rain = 0
KLE1 181551Z 17013KT 34/18 A299 RMK A01 T03350183  RH  040%=      5-min Rain = 0
KLE1 181552Z 18012KT 34/18 A299 RMK A01 T03370184  RH  040%=      5-min Rain = 0
KLE1 181553Z 19013KT 34/19 A299 RMK A01 T03420188  RH  040%=      5-min Rain = 0
KLE1 181554Z 21013KT 34/18 A299 RMK A01 T03440184  RH  039%=      5-min Rain = 0
KLE1 181555Z 21014KT 34/18 A299 RMK A01 T03420182  RH  039%=      5-min Rain = 0
KLE1 181556Z 21012KT 34/18 A299 RMK A01 T03410183  RH  039%=      5-min Rain = 0
KLE1 181557Z 22011KT 34/19 A299 RMK A01 T03430186  RH  040%=      5-min Rain = 0
KLE1 181558Z 22010KT 35/19 A299 RMK A01 T03450185  RH  039%=      5-min Rain = 0
KLE1 181559Z 22010KT 34/18 A299 RMK A01 T03440184  RH  039%=      5-min Rain = 0
KLE1 181600Z 18010KT 34/19 A299 RMK A01 T03440186  RH  040%=      5-min Rain = 0
KLE1 181601Z 18011KT 35/18 A299 RMK A01 T03450184  RH  039%=      5-min Rain = 0
KLE1 181602Z 19012KT 34/18 A299 RMK A01 T03410183  RH  039%=      5-min Rain = 0
KLE1 181603Z 20014KT 34/18 A299 RMK A01 T03410182  RH  039%=      5-min Rain = 0
KLE1 181604Z 20013KT 34/18 A299 RMK A01 T03420183  RH  039%=      5-min Rain = 0
KLE1 181605Z 20010KT 34/18 A299 RMK A01 T03440183  RH  039%=      5-min Rain = 0
KLE1 181606Z 19013KT 34/19 A299 RMK A01 T03440185  RH  039%=      5-min Rain = 0
KLE1 181607Z 18013KT 35/18 A299 RMK A01 T03460184  RH  038%=      5-min Rain = 0
KLE1 181608Z 19014KT 35/18 A299 RMK A01 T03470183  RH  038%=      5-min Rain = 0
KLE1 181609Z 20012KT 35/18 A299 RMK A01 T03470183  RH  038%=      5-min Rain = 0
KLE1 181610Z 20011KT 35/18 A299 RMK A01 T03460183  RH  038%=      5-min Rain = 0
KLE1 181611Z 20011KT 35/19 A299 RMK A01 T03460186  RH  039%=      5-min Rain = 0
KLE1 181612Z 19011KT 35/19 A299 RMK A01 T03500186  RH  038%=      5-min Rain = 0
KLE1 181613Z 21010KT 35/18 A299 RMK A01 T03510184  RH  037%=      5-min Rain = 0
KLE1 181614Z 20009KT 35/18 A299 RMK A01 T03480184  RH  038%=      5-min Rain = 0
KLE1 181615Z 20009KT 35/18 A299 RMK A01 T03470184  RH  038%=      5-min Rain = 0
KLE1 181616Z 19009KT 35/19 A299 RMK A01 T03480185  RH  038%=      5-min Rain = 0
KLE1 181617Z 18013KT 35/19 A299 RMK A01 T03490187  RH  038%=      5-min Rain = 0
KLE1 181618Z 21013KT 35/19 A299 RMK A01 T03500185  RH  038%=      5-min Rain = 0
KLE1 181619Z 21010KT 35/19 A299 RMK A01 T03500185  RH  038%=      5-min Rain = 0
KLE1 181620Z 22009KT 35/19 A299 RMK A01 T03510186  RH  038%=      5-min Rain = 0
KLE1 181621Z 20010KT 35/19 A299 RMK A01 T03520185  RH  037%=      5-min Rain = 0
KLE1 181622Z 19008KT 35/19 A299 RMK A01 T03520186  RH  038%=      5-min Rain = 0
KLE1 181623Z 20016KT 35/19 A299 RMK A01 T03530186  RH  038%=      5-min Rain = 0
KLE1 181624Z 19015KT 35/18 A299 RMK A01 T03520183  RH  037%=      5-min Rain = 0
KLE1 181625Z 18013KT 35/18 A299 RMK A01 T03490182  RH  037%=      5-min Rain = 0
KLE1 181626Z 19012KT 35/18 A299 RMK A01 T03470183  RH  038%=      5-min Rain = 0
KLE1 181627Z 20010KT 35/18 A299 RMK A01 T03470184  RH  038%=      5-min Rain = 0
KLE1 181628Z 19011KT 35/19 A299 RMK A01 T03500186  RH  038%=      5-min Rain = 0
KLE1 181629Z 18010KT 35/18 A299 RMK A01 T03490184  RH  038%=      5-min Rain = 0
KLE1 181630Z 19013KT 35/19 A299 RMK A01 T03490185  RH  038%=      5-min Rain = 0
KLE1 181631Z 19014KT 35/18 A299 RMK A01 T03510183  RH  037%=      5-min Rain = 0
KLE1 181632Z 18012KT 35/18 A299 RMK A01 T03510183  RH  037%=      5-min Rain = 0
KLE1 181633Z 19013G18KT 35/18 A299 RMK A01 T03510184  RH  037%=      5-min Rain = 0
KLE1 181634Z 20012KT 35/18 A299 RMK A01 T03520183  RH  037%=      5-min Rain = 0
KLE1 181635Z 20011KT 35/18 A299 RMK A01 T03520183  RH  037%=      5-min Rain = 0
KLE1 181636Z 18009KT 35/18 A299 RMK A01 T03510183  RH  037%=      5-min Rain = 0
KLE1 181637Z 18014KT 35/19 A299 RMK A01 T03510185  RH  038%=      5-min Rain = 0
KLE1 181638Z 18010KT 35/18 A299 RMK A01 T03500182  RH  037%=      5-min Rain = 0
KLE1 181639Z 19009KT 35/18 A299 RMK A01 T03490184  RH  038%=      5-min Rain = 0
KLE1 181640Z 18010KT 35/18 A299 RMK A01 T03490184  RH  038%=      5-min Rain = 0
KLE1 181641Z 17012KT 35/19 A299 RMK A01 T03500186  RH  038%=      5-min Rain = 0
KLE1 181642Z 18013KT 35/19 A299 RMK A01 T03530187  RH  038%=      5-min Rain = 0
KLE1 181643Z 18012KT 35/19 A299 RMK A01 T03540186  RH  037%=      5-min Rain = 0
KLE1 181644Z 19012KT 35/19 A299 RMK A01 T03540187  RH  037%=      5-min Rain = 0
KLE1 181645Z 17012KT 36/19 A2989 RMK A01 T03560187  RH  037%=      5-min Rain = 0
KLE1 181646Z 18014G19KT 36/19 A2989 RMK A01 T03570188  RH  037%=      5-min Rain = 0
KLE1 181647Z 21013KT 36/19 A2989 RMK A01 T03580186  RH  036%=      5-min Rain = 0
KLE1 181648Z 19014G19KT 36/18 A2989 RMK A01 T03590184  RH  036%=      5-min Rain = 0
KLE1 181649Z 20012G17KT 36/18 A2989 RMK A01 T03550184  RH  037%=      5-min Rain = 0
KLE1 181650Z 22013KT 36/19 A2989 RMK A01 T03560186  RH  037%=      5-min Rain = 0
KLE1 181651Z 18013KT 36/19 A2989 RMK A01 T03560187  RH  037%=      5-min Rain = 0
KLE1 181652Z 16013KT 36/19 A2989 RMK A01 T03560187  RH  037%=      5-min Rain = 0
KLE1 181653Z 18009KT 36/19 A2989 RMK A01 T03560186  RH  037%=      5-min Rain = 0
KLE1 181654Z 22010KT 36/19 A2989 RMK A01 T03560187  RH  037%=      5-min Rain = 0
KLE1 181655Z 21010KT 36/19 A2989 RMK A01 T03570185  RH  036%=      5-min Rain = 0
KLE1 181656Z 20008KT 36/18 A2989 RMK A01 T03560184  RH  036%=      5-min Rain = 0
KLE1 181657Z 19008KT 36/19 A2989 RMK A01 T03550185  RH  037%=      5-min Rain = 0
KLE1 181658Z 19010G15KT 36/19 A2989 RMK A01 T03550186  RH  037%=      5-min Rain = 0
KLE1 181659Z 19012KT 36/18 A2989 RMK A01 T03560182  RH  036%=      5-min Rain = 0
KLE1 181700Z 20013KT 36/19 A2989 RMK A01 T03600185  RH  036%=      5-min Rain = 0
KLE1 181701Z 20009KT 36/18 A2989 RMK A01 T03610183  RH  035%=      5-min Rain = 0
KLE1 181702Z 19012KT 36/19 A2989 RMK A01 T03600185  RH  036%=      5-min Rain = 0
KLE1 181703Z 18013KT 36/19 A2989 RMK A01 T03610186  RH  036%=      5-min Rain = 0
KLE1 181704Z 18014G19KT 36/19 A2989 RMK A01 T03590185  RH  036%=      5-min Rain = 0
KLE1 181705Z 18014KT 36/19 A2989 RMK A01 T03600185  RH  036%=      5-min Rain = 0
KLE1 181706Z 17012KT 36/19 A2989 RMK A01 T03610185  RH  036%=      5-min Rain = 0
KLE1 181707Z 18015KT 36/18 A2989 RMK A01 T03610183  RH  035%=      5-min Rain = 0
KLE1 181708Z 18012G17KT 36/18 A2989 RMK A01 T03620182  RH  035%=      5-min Rain = 0
KLE1 181709Z 17013KT 36/18 A2989 RMK A01 T03610184  RH  035%=      5-min Rain = 0
KLE1 181710Z 18013KT 36/18 A2989 RMK A01 T03610183  RH  035%=      5-min Rain = 0
KLE1 181711Z 17011KT 36/18 A2989 RMK A01 T03600182  RH  035%=      5-min Rain = 0
KLE1 181712Z 18010KT 36/18 A2989 RMK A01 T03600184  RH  036%=      5-min Rain = 0
KLE1 181713Z 18011KT 36/18 A2989 RMK A01 T03590184  RH  036%=      5-min Rain = 0
KLE1 181714Z 19013KT 36/19 A2989 RMK A01 T03610186  RH  036%=      5-min Rain = 0
KLE1 181715Z 19017KT 36/18 A2989 RMK A01 T03620184  RH  035%=      5-min Rain = 0
KLE1 181716Z 20014KT 36/18 A2989 RMK A01 T03610184  RH  035%=      5-min Rain = 0
KLE1 181717Z 19011KT 36/19 A2989 RMK A01 T03610185  RH  036%=      5-min Rain = 0
KLE1 181718Z 19009KT 36/19 A2989 RMK A01 T03620186  RH  036%=      5-min Rain = 0
KLE1 181719Z 18011G16KT 36/19 A2989 RMK A01 T03640186  RH  035%=      5-min Rain = 0
KLE1 181720Z 19010KT 36/19 A2989 RMK A01 T03630185  RH  035%=      5-min Rain = 0
KLE1 181721Z 20015KT 36/18 A2989 RMK A01 T03640184  RH  035%=      5-min Rain = 0
KLE1 181722Z 20013KT 36/18 A2989 RMK A01 T03640182  RH  034%=      5-min Rain = 0
KLE1 181723Z 20011KT 36/19 A2989 RMK A01 T03640185  RH  035%=      5-min Rain = 0
KLE1 181724Z 20013KT 37/19 A2989 RMK A01 T03690187  RH  035%=      5-min Rain = 0
KLE1 181725Z 21012KT 37/19 A2989 RMK A01 T03690186  RH  034%=      5-min Rain = 0
KLE1 181726Z 20010KT 37/19 A2989 RMK A01 T03680188  RH  035%=      5-min Rain = 0
KLE1 181727Z 21010KT 37/19 A2989 RMK A01 T03720190  RH  035%=      5-min Rain = 0
KLE1 181728Z 21008KT 37/19 A2989 RMK A01 T03730187  RH  034%=      5-min Rain = 0
KLE1 181729Z 19007KT 37/19 A2989 RMK A01 T03720191  RH  035%=      5-min Rain = 0
KLE1 181730Z 18011KT 37/19 A2989 RMK A01 T03740191  RH  034%=      5-min Rain = 0
KLE1 181731Z 17009KT 37/19 A2989 RMK A01 T03730188  RH  034%=      5-min Rain = 0
KLE1 181732Z 18010KT 37/19 A2989 RMK A01 T03700189  RH  035%=      5-min Rain = 0
KLE1 181733Z 17009KT 37/19 A2989 RMK A01 T03690188  RH  035%=      5-min Rain = 0
KLE1 181734Z 18013KT 37/19 A2989 RMK A01 T03680189  RH  035%=      5-min Rain = 0
KLE1 181735Z 21015KT 37/19 A2988 RMK A01 T03720186  RH  034%=      5-min Rain = 0
KLE1 181736Z 22011KT 37/19 A2989 RMK A01 T03710185  RH  034%=      5-min Rain = 0
KLE1 181737Z 21010KT 37/19 A2989 RMK A01 T03690185  RH  034%=      5-min Rain = 0
KLE1 181738Z 21009KT 37/19 A2989 RMK A01 T03680185  RH  034%=      5-min Rain = 0
KLE1 181739Z 20009KT 37/19 A2988 RMK A01 T03670186  RH  035%=      5-min Rain = 0
KLE1 181740Z 19006KT 37/19 A2988 RMK A01 T03690191  RH  036%=      5-min Rain = 0
KLE1 181741Z 18012KT 38/20 A2988 RMK A01 T03760196  RH  035%=      5-min Rain = 0
KLE1 181742Z 17013KT 38/19 A2988 RMK A01 T03760191  RH  034%=      5-min Rain = 0
KLE1 181743Z 17011KT 37/19 A2988 RMK A01 T03710191  RH  035%=      5-min Rain = 0
KLE1 181744Z 18008KT 37/19 A2988 RMK A01 T03700190  RH  035%=      5-min Rain = 0
KLE1 181745Z 20006KT 37/19 A2988 RMK A01 T03670191  RH  036%=      5-min Rain = 0
KLE1 181746Z 18011KT 37/19 A2988 RMK A01 T03670192  RH  036%=      5-min Rain = 0
KLE1 181747Z 19013KT 37/19 A2988 RMK A01 T03690192  RH  036%=      5-min Rain = 0
KLE1 181748Z 19012KT 37/19 A2988 RMK A01 T03710191  RH  035%=      5-min Rain = 0
KLE1 181749Z 18012KT 37/19 A2988 RMK A01 T03730191  RH  035%=      5-min Rain = 0
KLE1 181750Z 19011KT 37/19 A2988 RMK A01 T03720192  RH  035%=      5-min Rain = 0
KLE1 181751Z 17012KT 37/19 A2988 RMK A01 T03730194  RH  035%=      5-min Rain = 0
KLE1 181752Z 18015KT 38/19 A2988 RMK A01 T03760193  RH  034%=      5-min Rain = 0
KLE1 181753Z 19014KT 38/19 A2988 RMK A01 T03770193  RH  034%=      5-min Rain = 0
KLE1 181754Z 16012KT 37/19 A2988 RMK A01 T03740192  RH  035%=      5-min Rain = 0
KLE1 181755Z 16012KT 37/19 A2988 RMK A01 T03720191  RH  035%=      5-min Rain = 0
KLE1 181756Z 17009KT 37/19 A2988 RMK A01 T03690191  RH  035%=      5-min Rain = 0
KLE1 181757Z 16012KT 37/19 A2988 RMK A01 T03690192  RH  036%=      5-min Rain = 0
KLE1 181758Z 16014KT 37/19 A2988 RMK A01 T03730192  RH  035%=      5-min Rain = 0
KLE1 181759Z 16015G22KT 37/19 A2988 RMK A01 T03740191  RH  035%=      5-min Rain = 0
KLE1 181800Z 17015KT 38/19 A2988 RMK A01 T03750193  RH  035%=      5-min Rain = 0
KLE1 181801Z 17014KT 38/19 A2987 RMK A01 T03750191  RH  034%=      5-min Rain = 0
KLE1 181802Z 17015KT 37/19 A2987 RMK A01 T03740192  RH  035%=      5-min Rain = 0
KLE1 181803Z 17015KT 37/19 A2987 RMK A01 T03730191  RH  034%=      5-min Rain = 0
KLE1 181804Z 17016KT 37/19 A2987 RMK A01 T03730190  RH  034%=      5-min Rain = 0
KLE1 181805Z 16013KT 37/19 A2987 RMK A01 T03710189  RH  035%=      5-min Rain = 0
KLE1 181806Z 17011KT 37/19 A2987 RMK A01 T03720190  RH  035%=      5-min Rain = 0
KLE1 181807Z 16013G20KT 37/19 A2987 RMK A01 T03740190  RH  034%=      5-min Rain = 0
KLE1 181808Z 17014KT 38/19 A2987 RMK A01 T03770192  RH  034%=      5-min Rain = 0
KLE1 181809Z 17011KT 38/19 A2987 RMK A01 T03800192  RH  034%=      5-min Rain = 0
KLE1 181810Z 16011KT 38/19 A2987 RMK A01 T03810192  RH  033%=      5-min Rain = 0
KLE1 181811Z 16010KT 38/19 A2987 RMK A01 T03810191  RH  033%=      5-min Rain = 0
KLE1 181812Z 17014KT 38/19 A2987 RMK A01 T03790190  RH  033%=      5-min Rain = 0
KLE1 181813Z 17013KT 38/19 A2987 RMK A01 T03770189  RH  033%=      5-min Rain = 0
KLE1 181814Z 17012KT 38/19 A2987 RMK A01 T03760189  RH  034%=      5-min Rain = 0
KLE1 181815Z 18010KT 38/19 A2987 RMK A01 T03800190  RH  033%=      5-min Rain = 0
KLE1 181816Z 16014KT 38/19 A2987 RMK A01 T03820190  RH  033%=      5-min Rain = 0
KLE1 181817Z 14015G20KT 38/19 A2987 RMK A01 T03820190  RH  033%=      5-min Rain = 0
KLE1 181818Z 15014KT 38/19 A2987 RMK A01 T03770189  RH  033%=      5-min Rain = 0
KLE1 181819Z 16008KT 37/19 A2987 RMK A01 T03740189  RH  034%=      5-min Rain = 0
KLE1 181820Z 15008KT 37/19 A2987 RMK A01 T03740190  RH  034%=      5-min Rain = 0
KLE1 181821Z 16010KT 38/19 A2987 RMK A01 T03750190  RH  034%=      5-min Rain = 0
KLE1 181822Z 17010KT 38/19 A2987 RMK A01 T03770192  RH  034%=      5-min Rain = 0
KLE1 181823Z 16012KT 38/19 A2986 RMK A01 T03780191  RH  034%=      5-min Rain = 0
KLE1 181824Z 14010KT 38/19 A2986 RMK A01 T03780190  RH  033%=      5-min Rain = 0
KLE1 181825Z 15015G21KT 38/19 A2986 RMK A01 T03760189  RH  034%=      5-min Rain = 0
KLE1 181826Z 18017KT 38/19 A2986 RMK A01 T03780188  RH  033%=      5-min Rain = 0
KLE1 181827Z 20012KT 38/19 A2986 RMK A01 T03780189  RH  033%=      5-min Rain = 0
KLE1 181828Z 19010G15KT 38/19 A2986 RMK A01 T03810193  RH  034%=      5-min Rain = 0
KLE1 181829Z 18015KT 39/19 A2986 RMK A01 T03860192  RH  032%=      5-min Rain = 0
KLE1 181830Z 18016KT 39/19 A2986 RMK A01 T03860190  RH  032%=      5-min Rain = 0
KLE1 181831Z 19015KT 38/19 A2986 RMK A01 T03840187  RH  032%=      5-min Rain = 0
KLE1 181832Z 19014KT 38/19 A2986 RMK A01 T03810188  RH  033%=      5-min Rain = 0
KLE1 181833Z 18015KT 38/19 A2986 RMK A01 T03810190  RH  033%=      5-min Rain = 0
KLE1 181834Z 20013KT 38/19 A2986 RMK A01 T03840191  RH  033%=      5-min Rain = 0
KLE1 181835Z 18013G21KT 38/19 A2986 RMK A01 T03820189  RH  033%=      5-min Rain = 0
KLE1 181836Z 16018KT 38/19 A2986 RMK A01 T03810189  RH  033%=      5-min Rain = 0
KLE1 181837Z 16016KT 38/19 A2986 RMK A01 T03810187  RH  032%=      5-min Rain = 0
KLE1 181838Z 17015KT 38/19 A2986 RMK A01 T03800188  RH  033%=      5-min Rain = 0
KLE1 181839Z 17011KT 38/19 A2986 RMK A01 T03800188  RH  033%=      5-min Rain = 0
KLE1 181840Z 17011KT 38/19 A2986 RMK A01 T03820191  RH  033%=      5-min Rain = 0
KLE1 181841Z 17014G19KT 39/19 A2985 RMK A01 T03870190  RH  032%=      5-min Rain = 0
KLE1 181842Z 20017KT 39/19 A2985 RMK A01 T03880190  RH  032%=      5-min Rain = 0
KLE1 181843Z 19014G19KT 39/19 A2986 RMK A01 T03890188  RH  031%=      5-min Rain = 0
KLE1 181844Z 19013KT 39/19 A2986 RMK A01 T03870186  RH  031%=      5-min Rain = 0
KLE1 181845Z 20012KT 38/19 A2985 RMK A01 T03840187  RH  032%=      5-min Rain = 0
KLE1 181846Z 19010KT 38/19 A2985 RMK A01 T03840185  RH  031%=      5-min Rain = 0
KLE1 181847Z 19008KT 38/19 A2985 RMK A01 T03820186  RH  032%=      5-min Rain = 0
KLE1 181848Z 18007KT 38/19 A2985 RMK A01 T03830189  RH  032%=      5-min Rain = 0
KLE1 181849Z 17015G21KT 39/19 A2985 RMK A01 T03860189  RH  032%=      5-min Rain = 0
KLE1 181850Z 17017KT 39/19 A2985 RMK A01 T03880185  RH  031%=      5-min Rain = 0
KLE1 181851Z 17012KT 39/18 A2985 RMK A01 T03860182  RH  031%=      5-min Rain = 0
KLE1 181852Z 17014KT 38/19 A2985 RMK A01 T03840186  RH  032%=      5-min Rain = 0
KLE1 181853Z 19012G17KT 39/19 A2985 RMK A01 T03870186  RH  031%=      5-min Rain = 0
KLE1 181854Z 18010KT 39/19 A2985 RMK A01 T03860185  RH  031%=      5-min Rain = 0
KLE1 181855Z 16010KT 39/19 A2985 RMK A01 T03850188  RH  032%=      5-min Rain = 0
KLE1 181856Z 16015KT 39/19 A2985 RMK A01 T03890186  RH  031%=      5-min Rain = 0
KLE1 181857Z 15014KT 39/18 A2985 RMK A01 T03880183  RH  030%=      5-min Rain = 0
KLE1 181858Z 16012KT 39/18 A2985 RMK A01 T03860181  RH  030%=      5-min Rain = 0
KLE1 181859Z 15015G21KT 39/18 A2985 RMK A01 T03850183  RH  031%=      5-min Rain = 0
KLE1 181900Z 16019KT 39/18 A2985 RMK A01 T03850184  RH  031%=      5-min Rain = 0
KLE1 181901Z 16017KT 39/19 A2985 RMK A01 T03860185  RH  031%=      5-min Rain = 0
KLE1 181902Z 17013KT 39/19 A2985 RMK A01 T03850185  RH  031%=      5-min Rain = 0
KLE1 181903Z 19011KT 39/19 A2985 RMK A01 T03860185  RH  031%=      5-min Rain = 0
KLE1 181904Z 16013KT 38/19 A2985 RMK A01 T03840185  RH  031%=      5-min Rain = 0
KLE1 181905Z 15011KT 39/19 A2985 RMK A01 T03860188  RH  032%=      5-min Rain = 0
KLE1 181906Z 16014KT 39/19 A2984 RMK A01 T03890187  RH  031%=      5-min Rain = 0
KLE1 181907Z 17018KT 39/19 A2984 RMK A01 T03920188  RH  031%=      5-min Rain = 0
KLE1 181908Z 16017KT 39/18 A2985 RMK A01 T03930184  RH  030%=      5-min Rain = 0
KLE1 181909Z 17015KT 39/19 A2985 RMK A01 T03930185  RH  030%=      5-min Rain = 0
KLE1 181910Z 16012KT 39/18 A2985 RMK A01 T03910180  RH  029%=      5-min Rain = 0
KLE1 181911Z 16013G19KT 39/18 A2984 RMK A01 T03880181  RH  030%=      5-min Rain = 0
KLE1 181912Z 16015KT 39/18 A2984 RMK A01 T03910178  RH  029%=      5-min Rain = 0
KLE1 181913Z 17013KT 40/18 A2984 RMK A01 T03960181  RH  029%=      5-min Rain = 0
KLE1 181914Z 16016KT 40/18 A2984 RMK A01 T04000182  RH  028%=      5-min Rain = 0
KLE1 181915Z 15014KT 40/18 A2984 RMK A01 T03980178  RH  028%=      5-min Rain = 0
KLE1 181916Z 16017KT 40/18 A2984 RMK A01 T03960181  RH  029%=      5-min Rain = 0
KLE1 181917Z 16014KT 40/18 A2984 RMK A01 T03950181  RH  029%=      5-min Rain = 0
KLE1 181918Z 16015KT 39/18 A2984 RMK A01 T03940182  RH  029%=      5-min Rain = 0
KLE1 181919Z 16014KT 39/18 A2984 RMK A01 T03930181  RH  029%=      5-min Rain = 0
KLE1 181920Z 16010G16KT 39/18 A2984 RMK A01 T03930180  RH  029%=      5-min Rain = 0
KLE1 181921Z 16010G15KT 39/18 A2984 RMK A01 T03880181  RH  030%=      5-min Rain = 0
KLE1 181922Z 16017KT 39/18 A2984 RMK A01 T03900183  RH  030%=      5-min Rain = 0
KLE1 181923Z 16015G22KT 39/18 A2984 RMK A01 T03930181  RH  029%=      5-min Rain = 0
KLE1 181924Z 16010G15KT 39/18 A2984 RMK A01 T03900180  RH  030%=      5-min Rain = 0
KLE1 181925Z 15014KT 39/18 A2984 RMK A01 T03910183  RH  030%=      5-min Rain = 0
KLE1 181926Z 16015G20KT 39/18 A2984 RMK A01 T03930183  RH  029%=      5-min Rain = 0
KLE1 181927Z 17016KT 39/18 A2984 RMK A01 T03940182  RH  029%=      5-min Rain = 0
KLE1 181928Z 18018KT 40/18 A2984 RMK A01 T03960180  RH  029%=      5-min Rain = 0
KLE1 181929Z 18016KT 40/18 A2984 RMK A01 T03950180  RH  029%=      5-min Rain = 0
KLE1 181930Z 18015G20KT 39/18 A2984 RMK A01 T03940180  RH  029%=      5-min Rain = 0
KLE1 181931Z 16012KT 39/18 A2984 RMK A01 T03930178  RH  029%=      5-min Rain = 0
KLE1 181932Z 16009KT 39/18 A2984 RMK A01 T03910180  RH  029%=      5-min Rain = 0
KLE1 181933Z 16015G23KT 39/18 A2983 RMK A01 T03930183  RH  030%=      5-min Rain = 0
KLE1 181934Z 16019KT 40/18 A2983 RMK A01 T03970181  RH  029%=      5-min Rain = 0
KLE1 181935Z 17017KT 40/18 A2983 RMK A01 T03960180  RH  029%=      5-min Rain = 0
KLE1 181936Z 16016KT 39/18 A2983 RMK A01 T03940180  RH  029%=      5-min Rain = 0
KLE1 181937Z 17018KT 39/18 A2983 RMK A01 T03940180  RH  029%=      5-min Rain = 0
KLE1 181938Z 15017KT 40/18 A2983 RMK A01 T03950177  RH  028%=      5-min Rain = 0
KLE1 181939Z 17020KT 40/18 A2983 RMK A01 T03950179  RH  028%=      5-min Rain = 0
KLE1 181940Z 17020G27KT 40/18 A2983 RMK A01 T03960178  RH  028%=      5-min Rain = 0
KLE1 181941Z 18015KT 40/18 A2983 RMK A01 T03960177  RH  028%=      5-min Rain = 0
KLE1 181942Z 18011KT 39/18 A2983 RMK A01 T03940175  RH  028%=      5-min Rain = 0
KLE1 181943Z 18014KT 39/18 A2983 RMK A01 T03930179  RH  029%=      5-min Rain = 0
KLE1 181944Z 18013KT 40/18 A2983 RMK A01 T03950178  RH  028%=      5-min Rain = 0
KLE1 181945Z 17015G20KT 40/18 A2983 RMK A01 T03960181  RH  029%=      5-min Rain = 0
KLE1 181946Z 16012KT 40/18 A2983 RMK A01 T03980175  RH  027%=      5-min Rain = 0
KLE1 181947Z 17011KT 40/18 A2983 RMK A01 T03970180  RH  028%=      5-min Rain = 0
KLE1 181948Z 19013KT 40/18 A2983 RMK A01 T04020180  RH  028%=      5-min Rain = 0
KLE1 181949Z 16011KT 40/18 A2983 RMK A01 T04030179  RH  027%=      5-min Rain = 0
KLE1 181950Z 16019G24KT 40/18 A2983 RMK A01 T04030177  RH  027%=      5-min Rain = 0
KLE1 181951Z 16020KT 40/17 A2983 RMK A01 T04020174  RH  027%=      5-min Rain = 0
KLE1 181952Z 17018KT 40/18 A2983 RMK A01 T03990176  RH  027%=      5-min Rain = 0
KLE1 181953Z 16016KT 40/18 A2983 RMK A01 T03990178  RH  028%=      5-min Rain = 0
KLE1 181954Z 17016KT 40/18 A2983 RMK A01 T03990175  RH  027%=      5-min Rain = 0
KLE1 181955Z 17012KT 40/17 A2983 RMK A01 T03960174  RH  027%=      5-min Rain = 0
KLE1 181956Z 18012KT 39/17 A2983 RMK A01 T03940173  RH  028%=      5-min Rain = 0
KLE1 181957Z 17011KT 40/18 A2983 RMK A01 T03950176  RH  028%=      5-min Rain = 0
KLE1 181958Z 16012G18KT 40/18 A2982 RMK A01 T04000179  RH  028%=      5-min Rain = 0
KLE1 181959Z 18015KT 41/18 A2983 RMK A01 T04050178  RH  027%=      5-min Rain = 0
KLE1 182000Z 18012KT 41/18 A2982 RMK A01 T04050177  RH  027%=      5-min Rain = 0
KLE1 182001Z 16014KT 41/18 A2982 RMK A01 T04050176  RH  027%=      5-min Rain = 0
KLE1 182002Z 16012G17KT 40/17 A2982 RMK A01 T04030169  RH  026%=      5-min Rain = 0
KLE1 182003Z 15014G20KT 40/17 A2982 RMK A01 T04010174  RH  027%=      5-min Rain = 0
KLE1 182004Z 16020KT 41/17 A2982 RMK A01 T04060168  RH  025%=      5-min Rain = 0
KLE1 182005Z 16018G24KT 41/17 A2982 RMK A01 T04050167  RH  025%=      5-min Rain = 0
KLE1 182006Z 17023KT 41/17 A2982 RMK A01 T04070171  RH  025%=      5-min Rain = 0
KLE1 182007Z 18020KT 41/17 A2982 RMK A01 T04060169  RH  025%=      5-min Rain = 0
KLE1 182008Z 18013KT 40/17 A2982 RMK A01 T04000169  RH  026%=      5-min Rain = 0
KLE1 182009Z 19017KT 40/17 A2982 RMK A01 T04000172  RH  027%=      5-min Rain = 0
KLE1 182010Z 21013KT 40/17 A2982 RMK A01 T04010170  RH  026%=      5-min Rain = 0
KLE1 182011Z 19011KT 40/17 A2982 RMK A01 T04000172  RH  027%=      5-min Rain = 0
KLE1 182012Z 18017KT 40/18 A2982 RMK A01 T04030175  RH  027%=      5-min Rain = 0
KLE1 182013Z 18016KT 41/17 A2982 RMK A01 T04060172  RH  026%=      5-min Rain = 0
KLE1 182014Z 18014KT 40/17 A2982 RMK A01 T04040169  RH  026%=      5-min Rain = 0
KLE1 182015Z 16016KT 40/17 A2982 RMK A01 T04020172  RH  026%=      5-min Rain = 0
KLE1 182016Z 15016KT 40/17 A2982 RMK A01 T04030173  RH  026%=      5-min Rain = 0
KLE1 182017Z 16018KT 40/17 A2982 RMK A01 T04020172  RH  026%=      5-min Rain = 0
KLE1 182018Z 16015G20KT 40/17 A2982 RMK A01 T04000172  RH  027%=      5-min Rain = 0
KLE1 182019Z 17019KT 40/17 A2982 RMK A01 T04030174  RH  027%=      5-min Rain = 0
KLE1 182020Z 18018KT 41/18 A2982 RMK A01 T04060175  RH  026%=      5-min Rain = 0
KLE1 182021Z 17016G22KT 41/18 A2982 RMK A01 T04060175  RH  026%=      5-min Rain = 0
KLE1 182022Z 17019KT 41/17 A2981 RMK A01 T04060172  RH  026%=      5-min Rain = 0
KLE1 182023Z 16015KT 40/17 A2982 RMK A01 T04030169  RH  026%=      5-min Rain = 0
KLE1 182024Z 16015KT 40/17 A2981 RMK A01 T03980170  RH  026%=      5-min Rain = 0
KLE1 182025Z 16016G27KT 40/17 A2981 RMK A01 T03980170  RH  027%=      5-min Rain = 0
KLE1 182026Z 17021G26KT 40/17 A2981 RMK A01 T03980170  RH  026%=      5-min Rain = 0
KLE1 182027Z 18021KT 40/17 A2981 RMK A01 T04000169  RH  026%=      5-min Rain = 0
KLE1 182028Z 19015KT 40/17 A2981 RMK A01 T04000169  RH  026%=      5-min Rain = 0
KLE1 182029Z 19016KT 40/17 A2981 RMK A01 T04040171  RH  026%=      5-min Rain = 0
KLE1 182030Z 18013KT 41/17 A2981 RMK A01 T04050172  RH  026%=      5-min Rain = 0
KLE1 182031Z 19011KT 41/17 A2981 RMK A01 T04050174  RH  026%=      5-min Rain = 0
KLE1 182032Z 20013KT 41/17 A2981 RMK A01 T04060174  RH  026%=      5-min Rain = 0
KLE1 182033Z 20016KT 41/17 A2981 RMK A01 T04080171  RH  025%=      5-min Rain = 0
KLE1 182034Z 19012KT 41/17 A2981 RMK A01 T04110169  RH  025%=      5-min Rain = 0
KLE1 182035Z 17014G21KT 41/17 A2981 RMK A01 T04100170  RH  025%=      5-min Rain = 0
KLE1 182036Z 17020KT 41/17 A2981 RMK A01 T04080170  RH  025%=      5-min Rain = 0
KLE1 182037Z 17016KT 40/17 A2981 RMK A01 T04030169  RH  026%=      5-min Rain = 0
KLE1 182038Z 16014G19KT 40/17 A2981 RMK A01 T04030173  RH  026%=      5-min Rain = 0
KLE1 182039Z 17017G23KT 41/17 A2981 RMK A01 T04070169  RH  025%=      5-min Rain = 0
KLE1 182040Z 17021KT 41/17 A2981 RMK A01 T04080166  RH  025%=      5-min Rain = 0
KLE1 182041Z 16021KT 41/17 A2981 RMK A01 T04060166  RH  025%=      5-min Rain = 0
KLE1 182042Z 18019KT 40/17 A2981 RMK A01 T04030167  RH  025%=      5-min Rain = 0
KLE1 182043Z 17018KT 41/17 A2981 RMK A01 T04050167  RH  025%=      5-min Rain = 0
KLE1 182044Z 17013G18KT 41/17 A2981 RMK A01 T04070168  RH  025%=      5-min Rain = 0
KLE1 182045Z 17016G22KT 41/17 A2981 RMK A01 T04090165  RH  024%=      5-min Rain = 0
KLE1 182046Z 17018KT 41/16 A2981 RMK A01 T04090162  RH  024%=      5-min Rain = 0
KLE1 182047Z 17017KT 41/16 A2981 RMK A01 T04070161  RH  024%=      5-min Rain = 0
KLE1 182048Z 18019KT 41/16 A2981 RMK A01 T04060163  RH  024%=      5-min Rain = 0
KLE1 182049Z 18019KT 41/17 A2981 RMK A01 T04060165  RH  025%=      5-min Rain = 0
KLE1 182050Z 18018KT 41/17 A2981 RMK A01 T04050166  RH  025%=      5-min Rain = 0
KLE1 182051Z 18016KT 40/17 A2981 RMK A01 T04040168  RH  025%=      5-min Rain = 0
KLE1 182052Z 18013KT 41/17 A2981 RMK A01 T04050170  RH  026%=      5-min Rain = 0
KLE1 182053Z 20014KT 41/17 A2981 RMK A01 T04060169  RH  025%=      5-min Rain = 0
KLE1 182054Z 19015G23KT 41/17 A2981 RMK A01 T04060170  RH  025%=      5-min Rain = 0
KLE1 182055Z 18021KT 41/17 A2981 RMK A01 T04070170  RH  025%=      5-min Rain = 0
KLE1 182056Z 17020G25KT 41/17 A2981 RMK A01 T04080169  RH  025%=      5-min Rain = 0
KLE1 182057Z 17017KT 40/17 A2981 RMK A01 T04030169  RH  026%=      5-min Rain = 0
KLE1 182058Z 19015KT 40/17 A2981 RMK A01 T04020168  RH  026%=      5-min Rain = 0
KLE1 182059Z 19016KT 40/17 A2981 RMK A01 T04030167  RH  025%=      5-min Rain = 0
KLE1 182100Z 19018G24KT 41/17 A2981 RMK A01 T04060168  RH  025%=      5-min Rain = 0
KLE1 182101Z 18022KT 41/17 A298 RMK A01 T04050170  RH  026%=      5-min Rain = 0
KLE1 182102Z 17016KT 40/17 A2981 RMK A01 T04040169  RH  026%=      5-min Rain = 0
KLE1 182103Z 17013KT 40/17 A298 RMK A01 T04030170  RH  026%=      5-min Rain = 0
KLE1 182104Z 17013KT 40/17 A298 RMK A01 T04030172  RH  026%=      5-min Rain = 0
KLE1 182105Z 16011KT 41/17 A298 RMK A01 T04060172  RH  026%=      5-min Rain = 0
KLE1 182106Z 18015KT 41/17 A298 RMK A01 T04070172  RH  026%=      5-min Rain = 0
KLE1 182107Z 17011G17KT 41/17 A298 RMK A01 T04060168  RH  025%=      5-min Rain = 0
KLE1 182108Z 17012G17KT 40/17 A298 RMK A01 T04030171  RH  026%=      5-min Rain = 0
KLE1 182109Z 17016KT 41/17 A298 RMK A01 T04060171  RH  025%=      5-min Rain = 0
KLE1 182110Z 17015KT 41/17 A298 RMK A01 T04060167  RH  025%=      5-min Rain = 0
KLE1 182111Z 18019KT 41/17 A298 RMK A01 T04050172  RH  026%=      5-min Rain = 0
KLE1 182112Z 17019G25KT 41/18 A298 RMK A01 T04060177  RH  027%=      5-min Rain = 0
KLE1 182113Z 18020KT 41/18 A298 RMK A01 T04070176  RH  026%=      5-min Rain = 0
KLE1 182114Z 17017KT 40/18 A298 RMK A01 T04030176  RH  027%=      5-min Rain = 0
KLE1 182115Z 16012KT 40/18 A298 RMK A01 T04020176  RH  027%=      5-min Rain = 0
KLE1 182116Z 18010KT 40/18 A298 RMK A01 T04030176  RH  027%=      5-min Rain = 0
KLE1 182117Z 18011KT 40/18 A298 RMK A01 T04030176  RH  027%=      5-min Rain = 0
KLE1 182118Z 17012KT 40/18 A298 RMK A01 T04040179  RH  027%=      5-min Rain = 0
KLE1 182119Z 18012KT 41/18 A298 RMK A01 T04070179  RH  027%=      5-min Rain = 0
KLE1 182120Z 19012KT 41/18 A298 RMK A01 T04100180  RH  027%=      5-min Rain = 0
KLE1 182121Z 20014G19KT 41/18 A298 RMK A01 T04110180  RH  026%=      5-min Rain = 0
KLE1 182122Z 19015G22KT 41/18 A298 RMK A01 T04130179  RH  026%=      5-min Rain = 0
KLE1 182123Z 17016G23KT 42/18 A298 RMK A01 T04160179  RH  025%=      5-min Rain = 0
KLE1 182124Z 16018KT 41/18 A298 RMK A01 T04140175  RH  025%=      5-min Rain = 0
KLE1 182125Z 16015KT 41/18 A298 RMK A01 T04090177  RH  026%=      5-min Rain = 0
KLE1 182126Z 19013KT 41/18 A298 RMK A01 T04090176  RH  026%=      5-min Rain = 0
KLE1 182127Z 20015KT 41/17 A298 RMK A01 T04100174  RH  025%=      5-min Rain = 0
KLE1 182128Z 18014KT 41/17 A298 RMK A01 T04100173  RH  025%=      5-min Rain = 0
KLE1 182129Z 17014KT 41/18 A298 RMK A01 T04080177  RH  026%=      5-min Rain = 0
KLE1 182130Z 16016KT 41/18 A298 RMK A01 T04070180  RH  027%=      5-min Rain = 0
KLE1 182131Z 18016KT 41/18 A298 RMK A01 T04070178  RH  026%=      5-min Rain = 0
KLE1 182132Z 18015KT 41/17 A298 RMK A01 T04080170  RH  025%=      5-min Rain = 0
KLE1 182133Z 19017KT 41/17 A298 RMK A01 T04070170  RH  025%=      5-min Rain = 0
KLE1 182134Z 19017KT 41/17 A2979 RMK A01 T04100170  RH  025%=      5-min Rain = 0
KLE1 182135Z 19017KT 41/17 A2979 RMK A01 T04120168  RH  024%=      5-min Rain = 0
KLE1 182136Z 18015KT 41/17 A298 RMK A01 T04100169  RH  025%=      5-min Rain = 0
KLE1 182137Z 19012KT 41/17 A298 RMK A01 T04070172  RH  026%=      5-min Rain = 0
KLE1 182138Z 20011KT 40/17 A2979 RMK A01 T04010169  RH  026%=      5-min Rain = 0
KLE1 182139Z 19010KT 40/17 A2979 RMK A01 T03990171  RH  027%=      5-min Rain = 0
KLE1 182140Z 19014KT 40/17 A2979 RMK A01 T03980171  RH  027%=      5-min Rain = 0
KLE1 182141Z 18015KT 39/17 A298 RMK A01 T03940171  RH  027%=      5-min Rain = 0
KLE1 182142Z 18014KT 39/17 A2979 RMK A01 T03900170  RH  028%=      5-min Rain = 0
KLE1 182143Z 18014KT 39/17 A2979 RMK A01 T03890173  RH  028%=      5-min Rain = 0
KLE1 182144Z 18015KT 40/18 A2979 RMK A01 T03960178  RH  028%=      5-min Rain = 0
KLE1 182145Z 18019KT 40/18 A2979 RMK A01 T04010178  RH  027%=      5-min Rain = 0
KLE1 182146Z 17018KT 40/18 A2979 RMK A01 T04020176  RH  027%=      5-min Rain = 0
KLE1 182147Z 17017KT 40/18 A2979 RMK A01 T04020179  RH  027%=      5-min Rain = 0
KLE1 182148Z 18016G21KT 41/18 A2979 RMK A01 T04060177  RH  026%=      5-min Rain = 0
KLE1 182149Z 18016KT 41/17 A2979 RMK A01 T04100173  RH  025%=      5-min Rain = 0
KLE1 182150Z 18017KT 41/17 A2979 RMK A01 T04070173  RH  026%=      5-min Rain = 0
KLE1 182151Z 18018KT 41/18 A2979 RMK A01 T04060179  RH  027%=      5-min Rain = 0
KLE1 182152Z 17018G24KT 41/18 A2979 RMK A01 T04050178  RH  027%=      5-min Rain = 0
KLE1 182153Z 16019KT 40/18 A2979 RMK A01 T04040178  RH  027%=      5-min Rain = 0
KLE1 182154Z 16017KT 40/18 A2979 RMK A01 T04040177  RH  027%=      5-min Rain = 0
KLE1 182155Z 14018KT 40/18 A2979 RMK A01 T04030178  RH  027%=      5-min Rain = 0
KLE1 182156Z 15014KT 40/18 A2979 RMK A01 T04000177  RH  027%=      5-min Rain = 0
KLE1 182157Z 17012KT 40/18 A2979 RMK A01 T03990179  RH  028%=      5-min Rain = 0
KLE1 182158Z 16015KT 40/18 A2979 RMK A01 T04030182  RH  028%=      5-min Rain = 0
KLE1 182159Z 16015G20KT 41/18 A2979 RMK A01 T04070180  RH  027%=      5-min Rain = 0
KLE1 182200Z 18015KT 41/17 A2979 RMK A01 T04070173  RH  026%=      5-min Rain = 0
KLE1 182201Z 19018KT 40/17 A2979 RMK A01 T04030171  RH  026%=      5-min Rain = 0
KLE1 182202Z 20018KT 40/17 A2979 RMK A01 T04000172  RH  027%=      5-min Rain = 0
KLE1 182203Z 19016KT 40/18 A2979 RMK A01 T04000175  RH  027%=      5-min Rain = 0
KLE1 182204Z 19016KT 40/18 A2979 RMK A01 T04030178  RH  027%=      5-min Rain = 0
KLE1 182205Z 19014G20KT 41/18 A2979 RMK A01 T04070180  RH  027%=      5-min Rain = 0
KLE1 182206Z 19016KT 41/18 A2979 RMK A01 T04060176  RH  026%=      5-min Rain = 0
KLE1 182207Z 19016G21KT 40/17 A2979 RMK A01 T03990172  RH  027%=      5-min Rain = 0
KLE1 182208Z 19015KT 39/17 A2979 RMK A01 T03940171  RH  027%=      5-min Rain = 0
KLE1 182209Z 18015KT 39/17 A2979 RMK A01 T03930171  RH  027%=      5-min Rain = 0
KLE1 182210Z 16015KT 40/18 A2979 RMK A01 T03970175  RH  028%=      5-min Rain = 0
KLE1 182211Z 16019G24KT 40/18 A2979 RMK A01 T04020177  RH  027%=      5-min Rain = 0
KLE1 182212Z 17018KT 40/18 A2979 RMK A01 T04030175  RH  027%=      5-min Rain = 0
KLE1 182213Z 16017KT 40/17 A2979 RMK A01 T04040174  RH  026%=      5-min Rain = 0
KLE1 182214Z 16013KT 40/18 A2979 RMK A01 T04030175  RH  027%=      5-min Rain = 0
KLE1 182215Z 17014KT 40/18 A2979 RMK A01 T04040178  RH  027%=      5-min Rain = 0
KLE1 182216Z 18017KT 41/18 A2979 RMK A01 T04060177  RH  027%=      5-min Rain = 0
KLE1 182217Z 17018KT 41/18 A2979 RMK A01 T04060176  RH  026%=      5-min Rain = 0
KLE1 182218Z 17017G22KT 41/18 A2979 RMK A01 T04050175  RH  026%=      5-min Rain = 0
KLE1 182219Z 18018KT 40/17 A2979 RMK A01 T04040172  RH  026%=      5-min Rain = 0
KLE1 182220Z 17016KT 40/17 A2979 RMK A01 T04020174  RH  027%=      5-min Rain = 0
KLE1 182221Z 17017G24KT 40/17 A2979 RMK A01 T04010173  RH  027%=      5-min Rain = 0
KLE1 182222Z 17014KT 40/17 A2979 RMK A01 T04000174  RH  027%=      5-min Rain = 0
KLE1 182223Z 17014KT 40/18 A2979 RMK A01 T04020177  RH  027%=      5-min Rain = 0
KLE1 182224Z 17022G27KT 41/18 A2978 RMK A01 T04050177  RH  027%=      5-min Rain = 0
KLE1 182225Z 18017G23KT 40/17 A2978 RMK A01 T04040172  RH  026%=      5-min Rain = 0
KLE1 182226Z 18015KT 40/17 A2979 RMK A01 T04020174  RH  027%=      5-min Rain = 0
KLE1 182227Z 18018G23KT 40/17 A2978 RMK A01 T04030174  RH  027%=      5-min Rain = 0
KLE1 182228Z 19015KT 40/17 A2978 RMK A01 T04000173  RH  027%=      5-min Rain = 0
KLE1 182229Z 20018G23KT 40/17 A2978 RMK A01 T03980171  RH  027%=      5-min Rain = 0
KLE1 182230Z 20011KT 40/17 A2978 RMK A01 T03980171  RH  027%=      5-min Rain = 0
KLE1 182231Z 19013KT 40/17 A2978 RMK A01 T04000172  RH  027%=      5-min Rain = 0
KLE1 182232Z 18015KT 40/18 A2978 RMK A01 T04020176  RH  027%=      5-min Rain = 0
KLE1 182233Z 18017KT 41/18 A2978 RMK A01 T04050177  RH  027%=      5-min Rain = 0
KLE1 182234Z 17019KT 41/17 A2978 RMK A01 T04060174  RH  026%=      5-min Rain = 0
KLE1 182235Z 17019KT 41/17 A2978 RMK A01 T04050170  RH  026%=      5-min Rain = 0
KLE1 182236Z 16020G25KT 41/18 A2978 RMK A01 T04050175  RH  026%=      5-min Rain = 0
KLE1 182237Z 17020G25KT 41/17 A2978 RMK A01 T04050173  RH  026%=      5-min Rain = 0
KLE1 182238Z 17017KT 40/17 A2978 RMK A01 T04030174  RH  026%=      5-min Rain = 0
KLE1 182239Z 17017KT 40/18 A2978 RMK A01 T04030175  RH  027%=      5-min Rain = 0
KLE1 182240Z 18018KT 40/17 A2978 RMK A01 T04030174  RH  026%=      5-min Rain = 0
KLE1 182241Z 16016KT 40/18 A2978 RMK A01 T04030176  RH  027%=      5-min Rain = 0
KLE1 182242Z 16015G20KT 40/18 A2977 RMK A01 T04040177  RH  027%=      5-min Rain = 0
KLE1 182243Z 18019KT 41/18 A2977 RMK A01 T04050177  RH  027%=      5-min Rain = 0
KLE1 182244Z 19022KT 41/17 A2977 RMK A01 T04060173  RH  026%=      5-min Rain = 0
KLE1 182245Z 17018KT 40/17 A2978 RMK A01 T04040171  RH  026%=      5-min Rain = 0
KLE1 182246Z 16016KT 40/17 A2978 RMK A01 T04030170  RH  026%=      5-min Rain = 0
KLE1 182247Z 16016G21KT 40/17 A2978 RMK A01 T04030172  RH  026%=      5-min Rain = 0
KLE1 182248Z 18021KT 40/17 A2978 RMK A01 T04030172  RH  026%=      5-min Rain = 0
KLE1 182249Z 17019KT 40/17 A2978 RMK A01 T04020170  RH  026%=      5-min Rain = 0
KLE1 182250Z 17016KT 40/17 A2978 RMK A01 T04010171  RH  026%=      5-min Rain = 0
KLE1 182251Z 17020G26KT 40/17 A2978 RMK A01 T04010170  RH  026%=      5-min Rain = 0
KLE1 182252Z 18014KT 40/17 A2978 RMK A01 T03990169  RH  026%=      5-min Rain = 0
KLE1 182253Z 17013KT 40/17 A2978 RMK A01 T03990174  RH  027%=      5-min Rain = 0
KLE1 182254Z 15015KT 40/18 A2977 RMK A01 T04020175  RH  027%=      5-min Rain = 0
KLE1 182255Z 16015KT 40/17 A2977 RMK A01 T04020173  RH  026%=      5-min Rain = 0
KLE1 182256Z 16019KT 40/17 A2977 RMK A01 T03980173  RH  027%=      5-min Rain = 0
KLE1 182257Z 17018KT 40/17 A2977 RMK A01 T03950171  RH  027%=      5-min Rain = 0
KLE1 182258Z 17023KT 40/17 A2977 RMK A01 T03970171  RH  027%=      5-min Rain = 0
KLE1 182259Z 17019KT 40/17 A2977 RMK A01 T03980170  RH  027%=      5-min Rain = 0
KLE1 182300Z 17019KT 40/17 A2977 RMK A01 T03990171  RH  027%=      5-min Rain = 0
KLE1 182301Z 16017KT 40/17 A2977 RMK A01 T03990171  RH  026%=      5-min Rain = 0
KLE1 182302Z 17016KT 40/17 A2977 RMK A01 T03990171  RH  027%=      5-min Rain = 0
KLE1 182303Z 16016KT 40/17 A2977 RMK A01 T03980173  RH  027%=      5-min Rain = 0
KLE1 182304Z 16020KT 40/17 A2977 RMK A01 T03990172  RH  027%=      5-min Rain = 0
KLE1 182305Z 16018KT 40/17 A2977 RMK A01 T03990172  RH  027%=      5-min Rain = 0
KLE1 182306Z 16017G22KT 40/17 A2977 RMK A01 T03990172  RH  027%=      5-min Rain = 0
KLE1 182307Z 15019KT 40/17 A2977 RMK A01 T03990172  RH  027%=      5-min Rain = 0
KLE1 182308Z 16020G25KT 40/17 A2977 RMK A01 T03990173  RH  027%=      5-min Rain = 0
KLE1 182309Z 16020G26KT 40/18 A2977 RMK A01 T04000175  RH  027%=      5-min Rain = 0
KLE1 182310Z 17022KT 40/17 A2977 RMK A01 T04010173  RH  027%=      5-min Rain = 0
KLE1 182311Z 16022KT 40/17 A2977 RMK A01 T03990171  RH  027%=      5-min Rain = 0
KLE1 182312Z 16019G24KT 40/17 A2977 RMK A01 T03980171  RH  027%=      5-min Rain = 0
KLE1 182313Z 16018KT 40/17 A2977 RMK A01 T03970171  RH  027%=      5-min Rain = 0
KLE1 182314Z 15017KT 40/17 A2977 RMK A01 T03970172  RH  027%=      5-min Rain = 0
KLE1 182315Z 17015KT 40/17 A2977 RMK A01 T03970174  RH  027%=      5-min Rain = 0
KLE1 182316Z 19017KT 40/17 A2977 RMK A01 T04000171  RH  026%=      5-min Rain = 0
KLE1 182317Z 19019KT 40/17 A2977 RMK A01 T04000170  RH  026%=      5-min Rain = 0
KLE1 182318Z 17017KT 40/17 A2977 RMK A01 T04000172  RH  026%=      5-min Rain = 0
KLE1 182319Z 17020KT 40/17 A2977 RMK A01 T04000171  RH  026%=      5-min Rain = 0
KLE1 182320Z 16021KT 40/17 A2977 RMK A01 T03990170  RH  026%=      5-min Rain = 0
KLE1 182321Z 16019G24KT 40/17 A2976 RMK A01 T03980171  RH  027%=      5-min Rain = 0
KLE1 182322Z 16020G25KT 40/17 A2976 RMK A01 T03970172  RH  027%=      5-min Rain = 0
KLE1 182323Z 17018KT 40/17 A2977 RMK A01 T03970172  RH  027%=      5-min Rain = 0
KLE1 182324Z 17017KT 40/17 A2977 RMK A01 T03970172  RH  027%=      5-min Rain = 0
KLE1 182325Z 17020KT 40/17 A2976 RMK A01 T03980172  RH  027%=      5-min Rain = 0
KLE1 182326Z 16017KT 40/17 A2977 RMK A01 T03960170  RH  027%=      5-min Rain = 0
KLE1 182327Z 17018G23KT 39/17 A2977 RMK A01 T03930170  RH  027%=      5-min Rain = 0
KLE1 182328Z 17017KT 39/17 A2976 RMK A01 T03920169  RH  027%=      5-min Rain = 0
KLE1 182329Z 16015KT 39/17 A2976 RMK A01 T03930170  RH  027%=      5-min Rain = 0
KLE1 182330Z 16017KT 40/17 A2976 RMK A01 T03950170  RH  027%=      5-min Rain = 0
KLE1 182331Z 17014KT 40/17 A2976 RMK A01 T03950170  RH  027%=      5-min Rain = 0
KLE1 182332Z 19019G24KT 40/17 A2976 RMK A01 T03970171  RH  027%=      5-min Rain = 0
KLE1 182333Z 19016KT 40/17 A2976 RMK A01 T03970168  RH  026%=      5-min Rain = 0
KLE1 182334Z 19015KT 40/17 A2976 RMK A01 T03970169  RH  027%=      5-min Rain = 0
KLE1 182335Z 17019G24KT 40/17 A2976 RMK A01 T03970171  RH  027%=      5-min Rain = 0
KLE1 182336Z 16022KT 40/17 A2976 RMK A01 T03970172  RH  027%=      5-min Rain = 0
KLE1 182337Z 17017G22KT 40/17 A2976 RMK A01 T03950171  RH  027%=      5-min Rain = 0
KLE1 182338Z 17017KT 40/17 A2976 RMK A01 T03950172  RH  027%=      5-min Rain = 0
KLE1 182339Z 17020KT 40/17 A2976 RMK A01 T03950170  RH  027%=      5-min Rain = 0
KLE1 182340Z 17016KT 39/17 A2977 RMK A01 T03930169  RH  027%=      5-min Rain = 0
KLE1 182341Z 17015KT 39/17 A2977 RMK A01 T03930171  RH  027%=      5-min Rain = 0
KLE1 182342Z 17015KT 39/17 A2977 RMK A01 T03930170  RH  027%=      5-min Rain = 0
KLE1 182343Z 17017KT 39/17 A2977 RMK A01 T03930171  RH  027%=      5-min Rain = 0
KLE1 182344Z 17018KT 39/17 A2976 RMK A01 T03930167  RH  027%=      5-min Rain = 0
KLE1 182345Z 18018KT 39/17 A2976 RMK A01 T03930167  RH  027%=      5-min Rain = 0
KLE1 182346Z 18017KT 39/17 A2977 RMK A01 T03930168  RH  027%=      5-min Rain = 0
KLE1 182347Z 18016KT 39/17 A2977 RMK A01 T03930168  RH  027%=      5-min Rain = 0
KLE1 182348Z 18012KT 39/17 A2977 RMK A01 T03930167  RH  027%=      5-min Rain = 0
KLE1 182349Z 16015G20KT 39/17 A2976 RMK A01 T03930168  RH  027%=      5-min Rain = 0
KLE1 182350Z 17014KT 40/17 A2976 RMK A01 T03950170  RH  027%=      5-min Rain = 0
KLE1 182351Z 17012KT 40/17 A2976 RMK A01 T03960172  RH  027%=      5-min Rain = 0
KLE1 182352Z 18014KT 40/17 A2976 RMK A01 T03980171  RH  027%=      5-min Rain = 0
KLE1 182353Z 18016KT 40/17 A2977 RMK A01 T03980171  RH  027%=      5-min Rain = 0
KLE1 182354Z 17017KT 40/17 A2976 RMK A01 T03980168  RH  026%=      5-min Rain = 0
KLE1 182355Z 16018KT 40/17 A2976 RMK A01 T03960167  RH  026%=      5-min Rain = 0
KLE1 182356Z 17019KT 40/17 A2976 RMK A01 T03950167  RH  026%=      5-min Rain = 0
KLE1 182357Z 17018KT 39/17 A2976 RMK A01 T03940167  RH  027%=      5-min Rain = 0
KLE1 182358Z 17016G21KT 39/17 A2976 RMK A01 T03940168  RH  027%=      5-min Rain = 0
KLE1 182359Z 17019KT 39/17 A2976 RMK A01 T03930168  RH  027%=      5-min Rain = 0
KLE1 190000Z 17017KT 39/17 A2976 RMK A01 T03940168  RH  027%=      5-min Rain = 0
KLE1 190001Z 17017KT 39/17 A2976 RMK A01 T03940169  RH  027%=      5-min Rain = 0
KLE1 190002Z 16019G24KT 39/17 A2976 RMK A01 T03940169  RH  027%=      5-min Rain = 0
KLE1 190003Z 17020KT 39/17 A2976 RMK A01 T03930169  RH  027%=      5-min Rain = 0
KLE1 190004Z 16015KT 39/17 A2976 RMK A01 T03920170  RH  027%=      5-min Rain = 0
KLE1 190005Z 17014KT 39/17 A2976 RMK A01 T03920170  RH  027%=      5-min Rain = 0
KLE1 190006Z 17018KT 39/17 A2977 RMK A01 T03920170  RH  027%=      5-min Rain = 0
KLE1 190007Z 17015KT 39/17 A2976 RMK A01 T03920169  RH  027%=      5-min Rain = 0
KLE1 190008Z 16017KT 39/17 A2976 RMK A01 T03910169  RH  027%=      5-min Rain = 0
KLE1 190009Z 16020KT 39/17 A2976 RMK A01 T03910168  RH  027%=      5-min Rain = 0
KLE1 190010Z 15020KT 39/17 A2976 RMK A01 T03900168  RH  027%=      5-min Rain = 0
KLE1 190011Z 15019KT 39/17 A2976 RMK A01 T03890169  RH  028%=      5-min Rain = 0
KLE1 190012Z 17016KT 39/17 A2977 RMK A01 T03890169  RH  028%=      5-min Rain = 0
KLE1 190013Z 17014KT 39/17 A2977 RMK A01 T03900169  RH  028%=      5-min Rain = 0
KLE1 190014Z 18015KT 39/17 A2977 RMK A01 T03910171  RH  028%=      5-min Rain = 0
KLE1 190015Z 17017G24KT 39/17 A2977 RMK A01 T03910169  RH  027%=      5-min Rain = 0
KLE1 190016Z 16018KT 39/17 A2977 RMK A01 T03910168  RH  027%=      5-min Rain = 0
KLE1 190017Z 16017G22KT 39/17 A2977 RMK A01 T03890168  RH  027%=      5-min Rain = 0
KLE1 190018Z 17017G22KT 39/17 A2977 RMK A01 T03880168  RH  028%=      5-min Rain = 0
KLE1 190019Z 17016KT 39/17 A2977 RMK A01 T03880169  RH  028%=      5-min Rain = 0
KLE1 190020Z 17014KT 39/17 A2977 RMK A01 T03880169  RH  028%=      5-min Rain = 0
KLE1 190021Z 17014KT 39/17 A2977 RMK A01 T03890169  RH  028%=      5-min Rain = 0
KLE1 190022Z 17015KT 39/17 A2977 RMK A01 T03890169  RH  028%=      5-min Rain = 0
KLE1 190023Z 17015KT 39/17 A2977 RMK A01 T03890169  RH  028%=      5-min Rain = 0
KLE1 190024Z 18014KT 39/17 A2977 RMK A01 T03890166  RH  027%=      5-min Rain = 0
KLE1 190025Z 17011KT 39/17 A2977 RMK A01 T03890169  RH  028%=      5-min Rain = 0
KLE1 190026Z 17015KT 39/17 A2977 RMK A01 T03880169  RH  028%=      5-min Rain = 0
KLE1 190027Z 18018KT 39/17 A2977 RMK A01 T03890167  RH  027%=      5-min Rain = 0
KLE1 190028Z 18015KT 39/17 A2977 RMK A01 T03880166  RH  027%=      5-min Rain = 0
KLE1 190029Z 17015KT 39/17 A2977 RMK A01 T03870168  RH  028%=      5-min Rain = 0
KLE1 190030Z 17014KT 39/17 A2977 RMK A01 T03870168  RH  028%=      5-min Rain = 0
KLE1 190031Z 16015KT 39/17 A2977 RMK A01 T03860169  RH  028%=      5-min Rain = 0
KLE1 190032Z 16019KT 39/17 A2977 RMK A01 T03860169  RH  028%=      5-min Rain = 0
KLE1 190033Z 16018KT 39/17 A2977 RMK A01 T03850168  RH  028%=      5-min Rain = 0
KLE1 190034Z 15017KT 38/17 A2977 RMK A01 T03840170  RH  028%=      5-min Rain = 0
KLE1 190035Z 15019KT 38/17 A2977 RMK A01 T03840170  RH  029%=      5-min Rain = 0
KLE1 190036Z 15019KT 38/17 A2977 RMK A01 T03830169  RH  028%=      5-min Rain = 0
KLE1 190037Z 16017KT 38/17 A2977 RMK A01 T03820169  RH  029%=      5-min Rain = 0
KLE1 190038Z 16017G22KT 38/17 A2977 RMK A01 T03820170  RH  029%=      5-min Rain = 0
KLE1 190039Z 16016G21KT 38/17 A2977 RMK A01 T03820170  RH  029%=      5-min Rain = 0
KLE1 190040Z 18017KT 38/17 A2977 RMK A01 T03820170  RH  029%=      5-min Rain = 0
KLE1 190041Z 17017KT 38/17 A2977 RMK A01 T03820169  RH  029%=      5-min Rain = 0
KLE1 190042Z 17019KT 38/17 A2977 RMK A01 T03820170  RH  029%=      5-min Rain = 0
KLE1 190043Z 17022KT 38/17 A2977 RMK A01 T03820169  RH  029%=      5-min Rain = 0
KLE1 190044Z 17019KT 38/17 A2977 RMK A01 T03810168  RH  029%=      5-min Rain = 0
KLE1 190045Z 17018KT 38/17 A2977 RMK A01 T03800167  RH  029%=      5-min Rain = 0
KLE1 190046Z 16015KT 38/17 A2977 RMK A01 T03800168  RH  029%=      5-min Rain = 0
KLE1 190047Z 16013KT 38/17 A2977 RMK A01 T03800170  RH  029%=      5-min Rain = 0
KLE1 190048Z 16014KT 38/17 A2977 RMK A01 T03800170  RH  029%=      5-min Rain = 0
KLE1 190049Z 17012KT 38/17 A2977 RMK A01 T03800171  RH  029%=      5-min Rain = 0
KLE1 190050Z 16015KT 38/17 A2977 RMK A01 T03800171  RH  029%=      5-min Rain = 0
KLE1 190051Z 17018KT 38/17 A2977 RMK A01 T03800169  RH  029%=      5-min Rain = 0
KLE1 190052Z 17018KT 38/17 A2977 RMK A01 T03790168  RH  029%=      5-min Rain = 0
KLE1 190053Z 17017KT 38/17 A2977 RMK A01 T03790168  RH  029%=      5-min Rain = 0
KLE1 190054Z 16015KT 38/17 A2977 RMK A01 T03790168  RH  029%=      5-min Rain = 0
KLE1 190055Z 16015KT 38/17 A2977 RMK A01 T03780168  RH  029%=      5-min Rain = 0
KLE1 190056Z 16016KT 38/17 A2977 RMK A01 T03790169  RH  029%=      5-min Rain = 0
KLE1 190057Z 16016KT 38/17 A2977 RMK A01 T03780169  RH  029%=      5-min Rain = 0
KLE1 190058Z 16015KT 38/17 A2977 RMK A01 T03770169  RH  029%=      5-min Rain = 0
KLE1 190059Z 16013KT 38/17 A2977 RMK A01 T03760170  RH  030%=      5-min Rain = 0
KLE1 190100Z 16017KT 38/17 A2977 RMK A01 T03760170  RH  030%=      5-min Rain = 0
KLE1 190101Z 16017KT 38/17 A2977 RMK A01 T03760169  RH  030%=      5-min Rain = 0
KLE1 190102Z 16019KT 38/17 A2977 RMK A01 T03760169  RH  030%=      5-min Rain = 0
KLE1 190103Z 16019KT 38/17 A2977 RMK A01 T03750169  RH  030%=      5-min Rain = 0
KLE1 190104Z 17015KT 38/17 A2977 RMK A01 T03750168  RH  030%=      5-min Rain = 0
KLE1 190105Z 17015KT 38/17 A2977 RMK A01 T03750170  RH  030%=      5-min Rain = 0
KLE1 190106Z 17013G18KT 38/17 A2977 RMK A01 T03750170  RH  030%=      5-min Rain = 0
KLE1 190107Z 17019KT 38/17 A2977 RMK A01 T03750169  RH  030%=      5-min Rain = 0
KLE1 190108Z 16018KT 38/17 A2977 RMK A01 T03750169  RH  030%=      5-min Rain = 0
KLE1 190109Z 16017KT 38/17 A2977 RMK A01 T03750169  RH  030%=      5-min Rain = 0
KLE1 190110Z 17014KT 37/17 A2977 RMK A01 T03740169  RH  030%=      5-min Rain = 0
KLE1 190111Z 16014KT 37/17 A2977 RMK A01 T03730170  RH  030%=      5-min Rain = 0
KLE1 190112Z 16016KT 37/17 A2977 RMK A01 T03730170  RH  030%=      5-min Rain = 0
KLE1 190113Z 16016KT 37/17 A2977 RMK A01 T03720170  RH  030%=      5-min Rain = 0
KLE1 190114Z 16017KT 37/17 A2977 RMK A01 T03720170  RH  031%=      5-min Rain = 0
KLE1 190115Z 16016KT 37/17 A2977 RMK A01 T03720171  RH  031%=      5-min Rain = 0
KLE1 190116Z 15017KT 37/17 A2977 RMK A01 T03710172  RH  031%=      5-min Rain = 0
KLE1 190117Z 16019KT 37/17 A2977 RMK A01 T03710172  RH  031%=      5-min Rain = 0
KLE1 190118Z 16017KT 37/17 A2977 RMK A01 T03700172  RH  031%=      5-min Rain = 0
KLE1 190119Z 15017G22KT 37/17 A2977 RMK A01 T03700173  RH  032%=      5-min Rain = 0
KLE1 190120Z 15020KT 37/17 A2977 RMK A01 T03690174  RH  032%=      5-min Rain = 0
KLE1 190121Z 15020KT 37/17 A2977 RMK A01 T03680174  RH  032%=      5-min Rain = 0
KLE1 190122Z 15019KT 37/18 A2977 RMK A01 T03680175  RH  032%=      5-min Rain = 0
KLE1 190123Z 16018G23KT 37/18 A2977 RMK A01 T03680175  RH  032%=      5-min Rain = 0
KLE1 190124Z 15016KT 37/18 A2977 RMK A01 T03670175  RH  032%=      5-min Rain = 0
KLE1 190125Z 16016G21KT 37/18 A2977 RMK A01 T03670175  RH  032%=      5-min Rain = 0
KLE1 190126Z 15017KT 37/18 A2977 RMK A01 T03660175  RH  033%=      5-min Rain = 0
KLE1 190127Z 16014KT 37/18 A2977 RMK A01 T03650176  RH  033%=      5-min Rain = 0
KLE1 190128Z 16017KT 37/18 A2978 RMK A01 T03650176  RH  033%=      5-min Rain = 0
KLE1 190129Z 16016KT 36/18 A2978 RMK A01 T03640176  RH  033%=      5-min Rain = 0
KLE1 190130Z 16014G19KT 36/18 A2978 RMK A01 T03640177  RH  033%=      5-min Rain = 0
KLE1 190131Z 16015KT 36/18 A2978 RMK A01 T03630177  RH  033%=      5-min Rain = 0
KLE1 190132Z 15013KT 36/18 A2978 RMK A01 T03630177  RH  034%=      5-min Rain = 0
KLE1 190133Z 15014KT 36/18 A2978 RMK A01 T03620178  RH  034%=      5-min Rain = 0
KLE1 190134Z 15015KT 36/18 A2978 RMK A01 T03610178  RH  034%=      5-min Rain = 0
KLE1 190135Z 16016KT 36/18 A2978 RMK A01 T03610178  RH  034%=      5-min Rain = 0
KLE1 190136Z 15015G20KT 36/18 A2978 RMK A01 T03610178  RH  034%=      5-min Rain = 0
KLE1 190137Z 15016KT 36/18 A2978 RMK A01 T03600178  RH  034%=      5-min Rain = 0
KLE1 190138Z 15018KT 36/18 A2978 RMK A01 T03600178  RH  034%=      5-min Rain = 0
KLE1 190139Z 15016KT 36/18 A2978 RMK A01 T03600178  RH  034%=      5-min Rain = 0
KLE1 190140Z 16015KT 36/18 A2978 RMK A01 T03600178  RH  034%=      5-min Rain = 0
KLE1 190141Z 16018KT 36/18 A2978 RMK A01 T03590178  RH  034%=      5-min Rain = 0
KLE1 190142Z 16014G19KT 36/18 A2978 RMK A01 T03590179  RH  035%=      5-min Rain = 0
KLE1 190143Z 15014KT 36/18 A2978 RMK A01 T03580179  RH  035%=      5-min Rain = 0
KLE1 190144Z 16016KT 36/18 A2978 RMK A01 T03570178  RH  035%=      5-min Rain = 0
KLE1 190145Z 15015KT 36/18 A2978 RMK A01 T03570178  RH  035%=      5-min Rain = 0
KLE1 190146Z 15016KT 36/18 A2978 RMK A01 T03570179  RH  035%=      5-min Rain = 0
KLE1 190147Z 15017KT 36/18 A2978 RMK A01 T03570178  RH  035%=      5-min Rain = 0
KLE1 190148Z 15017KT 36/18 A2978 RMK A01 T03570178  RH  035%=      5-min Rain = 0
KLE1 190149Z 15017KT 36/18 A2978 RMK A01 T03570178  RH  035%=      5-min Rain = 0
KLE1 190150Z 15018KT 36/18 A2978 RMK A01 T03560178  RH  035%=      5-min Rain = 0
KLE1 190151Z 15018KT 36/18 A2978 RMK A01 T03560178  RH  035%=      5-min Rain = 0
KLE1 190152Z 15017KT 36/18 A2978 RMK A01 T03560179  RH  035%=      5-min Rain = 0
KLE1 190153Z 16017KT 36/18 A2978 RMK A01 T03560178  RH  035%=      5-min Rain = 0
KLE1 190154Z 16019KT 36/18 A2978 RMK A01 T03560178  RH  035%=      5-min Rain = 0
KLE1 190155Z 16017G22KT 36/18 A2978 RMK A01 T03560178  RH  035%=      5-min Rain = 0
KLE1 190156Z 15017KT 36/18 A2978 RMK A01 T03560179  RH  035%=      5-min Rain = 0
KLE1 190157Z 16018KT 36/18 A2978 RMK A01 T03550178  RH  035%=      5-min Rain = 0
KLE1 190158Z 16017KT 36/18 A2978 RMK A01 T03560178  RH  035%=      5-min Rain = 0
KLE1 190159Z 16016KT 36/18 A2978 RMK A01 T03550179  RH  035%=      5-min Rain = 0
KLE1 190200Z 16015G21KT 36/18 A2978 RMK A01 T03550179  RH  035%=      5-min Rain = 0
KLE1 190201Z 16017KT 35/18 A2978 RMK A01 T03540178  RH  035%=      5-min Rain = 0
KLE1 190202Z 15015KT 35/18 A2978 RMK A01 T03540178  RH  036%=      5-min Rain = 0
KLE1 190203Z 15014KT 35/18 A2979 RMK A01 T03530179  RH  036%=      5-min Rain = 0
KLE1 190204Z 16015KT 35/18 A2978 RMK A01 T03520179  RH  036%=      5-min Rain = 0
KLE1 190205Z 16017KT 35/18 A2978 RMK A01 T03520178  RH  036%=      5-min Rain = 0
KLE1 190206Z 15016KT 35/18 A2978 RMK A01 T03520178  RH  036%=      5-min Rain = 0
KLE1 190207Z 16016KT 35/18 A2979 RMK A01 T03520178  RH  036%=      5-min Rain = 0
KLE1 190208Z 15016KT 35/18 A2979 RMK A01 T03520178  RH  036%=      5-min Rain = 0
KLE1 190209Z 16015KT 35/18 A2979 RMK A01 T03510178  RH  036%=      5-min Rain = 0
KLE1 190210Z 16015KT 35/18 A2979 RMK A01 T03510178  RH  036%=      5-min Rain = 0
KLE1 190211Z 16014KT 35/18 A2979 RMK A01 T03510178  RH  036%=      5-min Rain = 0
KLE1 190212Z 15014KT 35/18 A2979 RMK A01 T03500178  RH  036%=      5-min Rain = 0
KLE1 190213Z 15016KT 35/18 A2979 RMK A01 T03500178  RH  036%=      5-min Rain = 0
KLE1 190214Z 16016KT 35/18 A2979 RMK A01 T03500178  RH  036%=      5-min Rain = 0
KLE1 190215Z 16014KT 35/18 A2979 RMK A01 T03500179  RH  036%=      5-min Rain = 0
KLE1 190216Z 16016KT 35/18 A2979 RMK A01 T03490178  RH  036%=      5-min Rain = 0
KLE1 190217Z 15016KT 35/18 A2979 RMK A01 T03490178  RH  036%=      5-min Rain = 0
KLE1 190218Z 16015KT 35/18 A2979 RMK A01 T03490178  RH  036%=      5-min Rain = 0
KLE1 190219Z 16015KT 35/18 A2979 RMK A01 T03490178  RH  036%=      5-min Rain = 0
KLE1 190220Z 16015KT 35/18 A2979 RMK A01 T03490178  RH  037%=      5-min Rain = 0
KLE1 190221Z 16016KT 35/18 A2979 RMK A01 T03480178  RH  037%=      5-min Rain = 0
KLE1 190222Z 16016KT 35/18 A2979 RMK A01 T03480178  RH  037%=      5-min Rain = 0
KLE1 190223Z 15015KT 35/18 A2979 RMK A01 T03480178  RH  037%=      5-min Rain = 0
KLE1 190224Z 15015KT 35/18 A2979 RMK A01 T03480178  RH  037%=      5-min Rain = 0
KLE1 190225Z 15014KT 35/18 A2979 RMK A01 T03470179  RH  037%=      5-min Rain = 0
KLE1 190226Z 15013KT 35/18 A2979 RMK A01 T03470179  RH  037%=      5-min Rain = 0
KLE1 190227Z 15014KT 35/18 A2979 RMK A01 T03460179  RH  037%=      5-min Rain = 0
KLE1 190228Z 15015KT 35/18 A2979 RMK A01 T03450179  RH  037%=      5-min Rain = 0
KLE1 190229Z 15014KT 35/18 A2979 RMK A01 T03450179  RH  037%=      5-min Rain = 0
KLE1 190230Z 15014KT 35/18 A2979 RMK A01 T03450179  RH  037%=      5-min Rain = 0
KLE1 190231Z 15012KT 35/18 A2979 RMK A01 T03450179  RH  037%=      5-min Rain = 0
KLE1 190232Z 15015KT 35/18 A2979 RMK A01 T03450180  RH  038%=      5-min Rain = 0
KLE1 190233Z 15013KT 34/18 A2979 RMK A01 T03440181  RH  038%=      5-min Rain = 0
KLE1 190234Z 15013KT 34/18 A2979 RMK A01 T03440181  RH  038%=      5-min Rain = 0
KLE1 190235Z 14012KT 34/18 A2979 RMK A01 T03430181  RH  038%=      5-min Rain = 0
KLE1 190236Z 15015KT 34/18 A298 RMK A01 T03420183  RH  039%=      5-min Rain = 0
KLE1 190237Z 14014KT 34/18 A298 RMK A01 T03420184  RH  039%=      5-min Rain = 0
KLE1 190238Z 15013KT 34/18 A298 RMK A01 T03420184  RH  039%=      5-min Rain = 0
KLE1 190239Z 15014KT 34/18 A298 RMK A01 T03410184  RH  039%=      5-min Rain = 0
KLE1 190240Z 15014KT 34/19 A298 RMK A01 T03410185  RH  040%=      5-min Rain = 0
KLE1 190241Z 15014KT 34/19 A298 RMK A01 T03410185  RH  040%=      5-min Rain = 0
KLE1 190242Z 14014KT 34/19 A298 RMK A01 T03400185  RH  040%=      5-min Rain = 0
KLE1 190243Z 15012KT 34/19 A298 RMK A01 T03410186  RH  040%=      5-min Rain = 0
KLE1 190244Z 14013KT 34/19 A298 RMK A01 T03400186  RH  040%=      5-min Rain = 0
KLE1 190245Z 14013G18KT 34/19 A298 RMK A01 T03390186  RH  040%=      5-min Rain = 0
KLE1 190246Z 14015KT 34/19 A298 RMK A01 T03380186  RH  041%=      5-min Rain = 0
KLE1 190247Z 14016KT 34/19 A298 RMK A01 T03380187  RH  041%=      5-min Rain = 0
KLE1 190248Z 15016KT 34/19 A298 RMK A01 T03380187  RH  041%=      5-min Rain = 0
KLE1 190249Z 15015KT 34/19 A298 RMK A01 T03380187  RH  041%=      5-min Rain = 0
KLE1 190250Z 14014KT 34/19 A298 RMK A01 T03380187  RH  041%=      5-min Rain = 0
KLE1 190251Z 15018KT 34/19 A298 RMK A01 T03380187  RH  041%=      5-min Rain = 0
KLE1 190252Z 15018KT 34/19 A298 RMK A01 T03380187  RH  041%=      5-min Rain = 0
KLE1 190253Z 15018G23KT 34/19 A298 RMK A01 T03380187  RH  041%=      5-min Rain = 0
KLE1 190254Z 15018KT 34/19 A298 RMK A01 T03380187  RH  041%=      5-min Rain = 0
KLE1 190255Z 15017KT 34/19 A298 RMK A01 T03380187  RH  041%=      5-min Rain = 0
KLE1 190256Z 15017KT 34/19 A298 RMK A01 T03380187  RH  041%=      5-min Rain = 0
KLE1 190257Z 15016KT 34/19 A298 RMK A01 T03380187  RH  041%=      5-min Rain = 0
KLE1 190258Z 15015KT 34/19 A298 RMK A01 T03370187  RH  041%=      5-min Rain = 0
KLE1 190259Z 15015KT 34/19 A298 RMK A01 T03360187  RH  041%=      5-min Rain = 0
KLE1 190300Z 15014KT 34/19 A298 RMK A01 T03360187  RH  042%=      5-min Rain = 0
KLE1 190301Z 15016KT 34/19 A298 RMK A01 T03350187  RH  042%=      5-min Rain = 0
KLE1 190302Z 15015KT 34/19 A298 RMK A01 T03350187  RH  042%=      5-min Rain = 0
KLE1 190303Z 15013KT 34/19 A2981 RMK A01 T03350187  RH  042%=      5-min Rain = 0
KLE1 190304Z 15013KT 33/19 A298 RMK A01 T03340187  RH  042%=      5-min Rain = 0
KLE1 190305Z 15016KT 33/19 A2981 RMK A01 T03330187  RH  042%=      5-min Rain = 0
KLE1 190306Z 15017KT 33/19 A2981 RMK A01 T03330187  RH  042%=      5-min Rain = 0
KLE1 190307Z 15017KT 33/19 A2981 RMK A01 T03330186  RH  042%=      5-min Rain = 0
KLE1 190308Z 15014G20KT 33/19 A2981 RMK A01 T03330186  RH  042%=      5-min Rain = 0
KLE1 190309Z 16018KT 33/19 A2981 RMK A01 T03330186  RH  042%=      5-min Rain = 0
KLE1 190310Z 15013KT 33/19 A2981 RMK A01 T03330186  RH  042%=      5-min Rain = 0
KLE1 190311Z 15014G19KT 33/19 A2981 RMK A01 T03320186  RH  042%=      5-min Rain = 0
KLE1 190312Z 15015KT 33/19 A2981 RMK A01 T03310186  RH  042%=      5-min Rain = 0
KLE1 190313Z 15017KT 33/19 A2981 RMK A01 T03310186  RH  042%=      5-min Rain = 0
KLE1 190314Z 15014KT 33/19 A2981 RMK A01 T03320186  RH  042%=      5-min Rain = 0
KLE1 190315Z 15013G20KT 33/19 A2981 RMK A01 T03320186  RH  042%=      5-min Rain = 0
KLE1 190316Z 15015KT 33/19 A2981 RMK A01 T03310186  RH  042%=      5-min Rain = 0
KLE1 190317Z 15016KT 33/19 A2981 RMK A01 T03310186  RH  042%=      5-min Rain = 0
KLE1 190318Z 16015KT 33/19 A2981 RMK A01 T03310185  RH  042%=      5-min Rain = 0
KLE1 190319Z 16019KT 33/19 A2981 RMK A01 T03310185  RH  042%=      5-min Rain = 0
KLE1 190320Z 15015KT 33/19 A2981 RMK A01 T03310185  RH  042%=      5-min Rain = 0
KLE1 190321Z 15016KT 33/19 A2981 RMK A01 T03310185  RH  042%=      5-min Rain = 0
KLE1 190322Z 15015KT 33/19 A2981 RMK A01 T03310185  RH  042%=      5-min Rain = 0
KLE1 190323Z 15015KT 33/19 A2981 RMK A01 T03310185  RH  042%=      5-min Rain = 0
KLE1 190324Z 15016KT 33/19 A2981 RMK A01 T03300185  RH  042%=      5-min Rain = 0
KLE1 190325Z 14015KT 33/18 A2981 RMK A01 T03310184  RH  042%=      5-min Rain = 0
KLE1 190326Z 15013KT 33/18 A2982 RMK A01 T03300184  RH  042%=      5-min Rain = 0
KLE1 190327Z 15015KT 33/18 A2982 RMK A01 T03300184  RH  042%=      5-min Rain = 0
KLE1 190328Z 15014KT 33/18 A2982 RMK A01 T03300184  RH  042%=      5-min Rain = 0
KLE1 190329Z 15015KT 33/18 A2982 RMK A01 T03290184  RH  042%=      5-min Rain = 0
KLE1 190330Z 15013KT 33/18 A2982 RMK A01 T03290184  RH  042%=      5-min Rain = 0
KLE1 190331Z 15016KT 33/18 A2982 RMK A01 T03290184  RH  042%=      5-min Rain = 0
KLE1 190332Z 15018KT 33/18 A2982 RMK A01 T03290184  RH  042%=      5-min Rain = 0
KLE1 190333Z 15015KT 33/18 A2982 RMK A01 T03290183  RH  042%=      5-min Rain = 0
KLE1 190334Z 15014KT 33/18 A2982 RMK A01 T03290183  RH  042%=      5-min Rain = 0
KLE1 190335Z 14013KT 33/18 A2982 RMK A01 T03290183  RH  042%=      5-min Rain = 0
KLE1 190336Z 15013KT 33/18 A2982 RMK A01 T03280183  RH  042%=      5-min Rain = 0
KLE1 190337Z 15016KT 33/18 A2982 RMK A01 T03270183  RH  042%=      5-min Rain = 0
KLE1 190338Z 15016KT 33/18 A2982 RMK A01 T03270183  RH  042%=      5-min Rain = 0
KLE1 190339Z 15014KT 33/18 A2982 RMK A01 T03280183  RH  042%=      5-min Rain = 0
KLE1 190340Z 15014KT 33/18 A2982 RMK A01 T03280183  RH  042%=      5-min Rain = 0
KLE1 190341Z 15012KT 33/18 A2982 RMK A01 T03280183  RH  042%=      5-min Rain = 0
KLE1 190342Z 15014KT 33/18 A2982 RMK A01 T03270183  RH  042%=      5-min Rain = 0
KLE1 190343Z 15015KT 33/18 A2982 RMK A01 T03270183  RH  042%=      5-min Rain = 0
KLE1 190344Z 15012G17KT 33/18 A2983 RMK A01 T03270183  RH  042%=      5-min Rain = 0
KLE1 190345Z 15012KT 33/18 A2983 RMK A01 T03270183  RH  042%=      5-min Rain = 0
KLE1 190346Z 15015KT 33/18 A2983 RMK A01 T03260182  RH  043%=      5-min Rain = 0
KLE1 190347Z 15012KT 33/18 A2983 RMK A01 T03260182  RH  043%=      5-min Rain = 0
KLE1 190348Z 15012KT 33/18 A2983 RMK A01 T03260183  RH  043%=      5-min Rain = 0
KLE1 190349Z 15015KT 33/18 A2983 RMK A01 T03250182  RH  043%=      5-min Rain = 0
KLE1 190350Z 15013KT 33/18 A2983 RMK A01 T03250182  RH  043%=      5-min Rain = 0
KLE1 190351Z 15014KT 33/18 A2983 RMK A01 T03250182  RH  043%=      5-min Rain = 0
KLE1 190352Z 15014KT 33/18 A2983 RMK A01 T03250182  RH  043%=      5-min Rain = 0
KLE1 190353Z 16014KT 33/18 A2983 RMK A01 T03250182  RH  043%=      5-min Rain = 0
KLE1 190354Z 15014KT 33/18 A2983 RMK A01 T03250182  RH  043%=      5-min Rain = 0
KLE1 190355Z 15013KT 33/18 A2983 RMK A01 T03250182  RH  043%=      5-min Rain = 0
KLE1 190356Z 15015KT 33/18 A2983 RMK A01 T03250182  RH  043%=      5-min Rain = 0
KLE1 190357Z 15016KT 32/18 A2983 RMK A01 T03240181  RH  043%=      5-min Rain = 0
KLE1 190358Z 16014KT 33/18 A2983 RMK A01 T03250182  RH  043%=      5-min Rain = 0
KLE1 190359Z 15015KT 33/18 A2983 RMK A01 T03250182  RH  043%=      5-min Rain = 0
KLE1 190400Z 16015KT 33/18 A2983 RMK A01 T03250182  RH  043%=      5-min Rain = 0
KLE1 190401Z 15014G19KT 32/18 A2983 RMK A01 T03240181  RH  043%=      5-min Rain = 0
KLE1 190402Z 15015KT 32/18 A2983 RMK A01 T03240181  RH  043%=      5-min Rain = 0
KLE1 190403Z 15015KT 32/18 A2983 RMK A01 T03240182  RH  043%=      5-min Rain = 0
KLE1 190404Z 15014KT 33/18 A2983 RMK A01 T03250182  RH  043%=      5-min Rain = 0
KLE1 190405Z 15013KT 33/18 A2983 RMK A01 T03250181  RH  043%=      5-min Rain = 0
KLE1 190406Z 15012KT 32/18 A2983 RMK A01 T03240181  RH  043%=      5-min Rain = 0
KLE1 190407Z 15013KT 32/18 A2983 RMK A01 T03230181  RH  043%=      5-min Rain = 0
KLE1 190408Z 14012KT 32/18 A2983 RMK A01 T03230181  RH  043%=      5-min Rain = 0
KLE1 190409Z 15013KT 32/18 A2983 RMK A01 T03230181  RH  043%=      5-min Rain = 0
KLE1 190410Z 15015KT 32/18 A2983 RMK A01 T03220181  RH  043%=      5-min Rain = 0
KLE1 190411Z 15014KT 32/18 A2984 RMK A01 T03220181  RH  043%=      5-min Rain = 0
KLE1 190412Z 15015KT 32/18 A2984 RMK A01 T03230181  RH  043%=      5-min Rain = 0
KLE1 190413Z 15014KT 32/18 A2984 RMK A01 T03230181  RH  043%=      5-min Rain = 0
KLE1 190414Z 15012KT 32/18 A2984 RMK A01 T03230181  RH  043%=      5-min Rain = 0
KLE1 190415Z 15014KT 32/18 A2984 RMK A01 T03220181  RH  043%=      5-min Rain = 0
KLE1 190416Z 15015KT 32/18 A2984 RMK A01 T03220181  RH  043%=      5-min Rain = 0
KLE1 190417Z 15014KT 32/18 A2984 RMK A01 T03220181  RH  043%=      5-min Rain = 0
KLE1 190418Z 15014KT 32/18 A2984 RMK A01 T03220181  RH  043%=      5-min Rain = 0
KLE1 190419Z 15012KT 32/18 A2984 RMK A01 T03220181  RH  043%=      5-min Rain = 0
KLE1 190420Z 15014KT 32/18 A2984 RMK A01 T03220181  RH  043%=      5-min Rain = 0
KLE1 190421Z 15012KT 32/18 A2984 RMK A01 T03210181  RH  043%=      5-min Rain = 0
KLE1 190422Z 15013KT 32/18 A2984 RMK A01 T03210180  RH  043%=      5-min Rain = 0
KLE1 190423Z 15011KT 32/18 A2984 RMK A01 T03210180  RH  043%=      5-min Rain = 0
KLE1 190424Z 15012KT 32/18 A2984 RMK A01 T03200180  RH  043%=      5-min Rain = 0
KLE1 190425Z 16011KT 32/18 A2984 RMK A01 T03190180  RH  044%=      5-min Rain = 0
KLE1 190426Z 15010KT 32/18 A2984 RMK A01 T03190181  RH  044%=      5-min Rain = 0
KLE1 190427Z 15012KT 32/18 A2984 RMK A01 T03190180  RH  044%=      5-min Rain = 0
KLE1 190428Z 15012KT 32/18 A2984 RMK A01 T03190180  RH  044%=      5-min Rain = 0
KLE1 190429Z 15011KT 32/18 A2984 RMK A01 T03190180  RH  044%=      5-min Rain = 0
KLE1 190430Z 15011KT 32/18 A2984 RMK A01 T03190180  RH  044%=      5-min Rain = 0
KLE1 190431Z 15012KT 32/18 A2984 RMK A01 T03190180  RH  044%=      5-min Rain = 0
KLE1 190432Z 15011KT 32/18 A2984 RMK A01 T03190180  RH  044%=      5-min Rain = 0
KLE1 190433Z 15011KT 32/18 A2984 RMK A01 T03180180  RH  044%=      5-min Rain = 0
KLE1 190434Z 15010KT 32/18 A2984 RMK A01 T03170180  RH  044%=      5-min Rain = 0
KLE1 190435Z 16010KT 32/18 A2985 RMK A01 T03170180  RH  044%=      5-min Rain = 0
KLE1 190436Z 16012KT 32/18 A2985 RMK A01 T03160180  RH  044%=      5-min Rain = 0
KLE1 190437Z 15010KT 32/18 A2985 RMK A01 T03160180  RH  044%=      5-min Rain = 0
KLE1 190438Z 15010KT 32/18 A2985 RMK A01 T03160180  RH  044%=      5-min Rain = 0
KLE1 190439Z 15011KT 32/18 A2985 RMK A01 T03160180  RH  044%=      5-min Rain = 0
KLE1 190440Z 16010KT 32/18 A2985 RMK A01 T03150180  RH  044%=      5-min Rain = 0
KLE1 190441Z 15009KT 32/18 A2985 RMK A01 T03160180  RH  044%=      5-min Rain = 0
KLE1 190442Z 15010KT 32/18 A2985 RMK A01 T03160180  RH  044%=      5-min Rain = 0
KLE1 190443Z 14010KT 32/18 A2985 RMK A01 T03160179  RH  044%=      5-min Rain = 0
KLE1 190444Z 15012KT 32/18 A2985 RMK A01 T03150179  RH  044%=      5-min Rain = 0
KLE1 190445Z 16012KT 32/18 A2985 RMK A01 T03150179  RH  044%=      5-min Rain = 0
KLE1 190446Z 15010KT 32/18 A2985 RMK A01 T03160179  RH  044%=      5-min Rain = 0
KLE1 190447Z 15011KT 32/18 A2985 RMK A01 T03160179  RH  044%=      5-min Rain = 0
KLE1 190448Z 16011KT 32/18 A2985 RMK A01 T03160179  RH  044%=      5-min Rain = 0
KLE1 190449Z 15010KT 32/18 A2985 RMK A01 T03160179  RH  044%=      5-min Rain = 0
KLE1 190450Z 15010KT 32/18 A2985 RMK A01 T03160179  RH  044%=      5-min Rain = 0
KLE1 190451Z 15010KT 32/18 A2985 RMK A01 T03160179  RH  044%=      5-min Rain = 0
KLE1 190452Z 15012KT 32/18 A2985 RMK A01 T03150179  RH  044%=      5-min Rain = 0
KLE1 190453Z 16010KT 32/18 A2985 RMK A01 T03150179  RH  044%=      5-min Rain = 0
KLE1 190454Z 15010KT 32/18 A2985 RMK A01 T03150179  RH  044%=      5-min Rain = 0
KLE1 190455Z 15011KT 32/18 A2985 RMK A01 T03150178  RH  044%=      5-min Rain = 0
KLE1 190456Z 16010KT 32/18 A2985 RMK A01 T03150179  RH  044%=      5-min Rain = 0
KLE1 190457Z 16012KT 31/18 A2985 RMK A01 T03140178  RH  044%=      5-min Rain = 0
KLE1 190458Z 15010KT 31/18 A2985 RMK A01 T03140178  RH  044%=      5-min Rain = 0
KLE1 190459Z 15012KT 31/18 A2985 RMK A01 T03140178  RH  044%=      5-min Rain = 0

Page generated in 0.229 seconds.